Flight Track Log - Related Links

Times and Time Zones

All times are in EDT time to prevent confusion due to time zone crossing. See the VIR901 flight status page for this flight to view local times or setup timezone preferences in your user account.

Time Position Orientation Groundspeed Altitude Reporting Facility
EDT Latitude Longitude Course Direction KTS MPH feet Rate Location/Type
Tue 11:25:57 PM 35.7250 140.4050 150° Southeast 160 184 1,500  Level FlightAware ADS-B
Tue 11:26:22 PM 35.7110 140.4150 150° Southeast 160 184 2,100 1,200 Climbing FlightAware ADS-B
Tue 11:26:47 PM 35.6920 140.4280 151° Southeast 179 206 2,500 1,200 Climbing FlightAware ADS-B
Tue 11:27:22 PM 35.6670 140.4450 151° Southeast 187 215 3,300 1,100 Climbing FlightAware ADS-B
Tue 11:27:47 PM 35.6460 140.4610 148° Southeast 213 245 3,600 982 Climbing FlightAware ADS-B
Tue 11:28:17 PM 35.6180 140.4810 150° Southeast 240 276 4,200 1,400 Climbing FlightAware ADS-B
Tue 11:28:47 PM 35.5910 140.5000 150° Southeast 244 281 5,000 1,855 Climbing FlightAware ADS-B
Tue 11:29:12 PM 35.5640 140.5130 159° South 239 275 5,900 2,073 Climbing FlightAware ADS-B
Tue 11:29:42 PM 35.5370 140.4910 214° Southwest 239 275 6,900 1,950 Climbing FlightAware ADS-B
Tue 11:29:52 PM 35.5350 140.4770 260° West 250 288 7,200 1,950 Climbing FlightAware ADS-B
Tue 11:30:22 PM 35.5440 140.4370 285° West 278 320 8,200 1,650 Climbing FlightAware ADS-B
Tue 11:30:32 PM 35.5510 140.4280 314° West 291 335 8,300 1,000 Climbing FlightAware ADS-B
Tue 11:30:52 PM 35.5760 140.4120 333° Northwest 316 364 8,700 1,333 Climbing FlightAware ADS-B
Tue 11:31:17 PM 35.6140 140.3870 332° Northwest 329 379 9,300 2,057 Climbing FlightAware ADS-B
Tue 11:32:02 PM 35.6700 140.3470 330° Northwest 320 368 11,100 1,624 Climbing FlightAware ADS-B
Tue 11:32:42 PM 35.7220 140.3070 328° Northwest 344 396 11,600 720 Climbing FlightAware ADS-B
Tue 11:33:17 PM 35.7740 140.2650 327° Northwest 362 417 12,000 1,040 Climbing FlightAware ADS-B
Tue 11:33:57 PM 35.8300 140.2190 326° Northwest 381 438 12,900 600 Climbing FlightAware ADS-B
Tue 11:34:57 PM 35.9160 140.1490 327° Northwest 369 425 13,000 57 Climbing FlightAware ADS-B
Tue 11:35:42 PM 35.9770 140.1000 327° Northwest 373 429 13,000  Level FlightAware ADS-B
Tue 11:36:22 PM 36.0380 140.0500 326° Northwest 377 434 13,000  Level FlightAware ADS-B
Tue 11:37:07 PM 36.1000 139.9990 326° Northwest 376 433 13,000 75 Level FlightAware ADS-B
Tue 11:37:42 PM 36.1560 139.9540 327° Northwest 378 435 13,100 1,129 Climbing FlightAware ADS-B
Tue 11:38:32 PM 36.2260 139.8970 327° Northwest 381 438 14,600 1,543 Climbing FlightAware ADS-B
Tue 11:39:27 PM 36.3070 139.8160 321° Northwest 375 432 15,800 1,309 Climbing FlightAware ADS-B
Tue 11:40:22 PM 36.3680 139.7310 312° West 388 447 17,000 1,425 Climbing FlightAware ADS-B
Tue 11:40:47 PM 36.4080 139.6940 323° Northwest 404 465 17,700 1,371 Climbing FlightAware ADS-B
Tue 11:41:32 PM 36.4890 139.6630 343° North 421 484 18,600 1,133 Climbing FlightAware ADS-B
Tue 11:42:17 PM 36.5760 139.6310 344° North 429 494 19,400 1,129 Climbing FlightAware ADS-B
Tue 11:42:57 PM 36.6540 139.6030 344° North 436 502 20,200 1,200 Climbing FlightAware ADS-B
Tue 11:43:37 PM 36.7310 139.5740 343° North 441 507 21,000 1,059 Climbing FlightAware ADS-B
Tue 11:44:22 PM 36.8100 139.5320 337° Northwest 435 501 21,700 988 Climbing FlightAware ADS-B
Tue 11:45:02 PM 36.8790 139.4850 331° Northwest 443 510 22,400 1,050 Climbing FlightAware ADS-B
Tue 11:45:42 PM 36.9500 139.4370 332° Northwest 445 512 23,100 1,020 Climbing FlightAware ADS-B
Tue 11:46:42 PM 37.0730 139.3530 331° Northwest 445 512 24,100 960 Climbing FlightAware ADS-B
Tue 11:47:22 PM 37.1460 139.3040 332° Northwest 456 525 24,700 918 Climbing FlightAware ADS-B
Tue 11:48:07 PM 37.2290 139.2470 331° Northwest 460 529 25,400 1,000 Climbing FlightAware ADS-B
Tue 11:48:52 PM 37.3140 139.1890 332° Northwest 457 526 26,200 1,129 Climbing FlightAware ADS-B
Tue 11:49:32 PM 37.3900 139.1370 331° Northwest 458 527 27,000 1,120 Climbing FlightAware ADS-B
Tue 11:50:07 PM 37.4540 139.0930 331° Northwest 460 529 27,600 1,271 Climbing FlightAware ADS-B
Tue 11:50:57 PM 37.5470 139.0290 331° Northwest 457 526 28,800 1,600 Climbing FlightAware ADS-B
Tue 11:51:37 PM 37.6250 138.9750 331° Northwest 458 527 30,000 1,553 Climbing FlightAware ADS-B
Tue 11:52:22 PM 37.7100 138.9170 332° Northwest 458 527 31,000 1,425 Climbing FlightAware ADS-B
Tue 11:52:57 PM 37.7730 138.8730 331° Northwest 445 512 31,900 750 Climbing FlightAware ADS-B
Tue 11:53:42 PM 37.8570 138.8140 331° Northwest 459 528 32,000 67 Climbing FlightAware ADS-B
Tue 11:54:27 PM 37.9420 138.7550 331° Northwest 458 527 32,000  Level FlightAware ADS-B
Tue 11:55:07 PM 38.0160 138.7040 332° Northwest 458 527 32,000  Level FlightAware ADS-B
Tue 11:55:52 PM 38.1030 138.6430 331° Northwest 463 533 32,000 71 Level FlightAware ADS-B
Tue 11:56:32 PM 38.1770 138.5910 331° Northwest 458 527 32,100 600 Climbing FlightAware ADS-B
Tue 11:57:12 PM 38.2500 138.5400 331° Northwest 464 534 32,800 1,125 Climbing FlightAware ADS-B
Tue 11:57:52 PM 38.3270 138.4860 331° Northwest 461 531 33,600 847 Climbing FlightAware ADS-B
Tue 11:58:37 PM 38.4090 138.4280 331° Northwest 460 529 34,000 282 Climbing FlightAware ADS-B
Tue 11:59:17 PM 38.4860 138.3740 331° Northwest 458 527 34,000  Level FlightAware ADS-B
Wed 12:00:02 AM 38.5690 138.3140 331° Northwest 460 529 34,000  Level FlightAware ADS-B
Wed 12:00:42 AM 38.6440 138.2610 331° Northwest 461 531 34,000  Level FlightAware ADS-B
Wed 12:01:27 AM 38.7270 138.2020 331° Northwest 460 529 34,000  Level FlightAware ADS-B
Wed 12:02:07 AM 38.8010 138.1490 331° Northwest 462 532 34,000  Level FlightAware ADS-B
Wed 12:02:47 AM 38.8760 138.0940 330° Northwest 463 533 34,000  Level FlightAware ADS-B
Wed 12:03:32 AM 38.9590 138.0350 331° Northwest 464 534 34,000  Level FlightAware ADS-B
Wed 12:04:12 AM 39.0370 137.9800 331° Northwest 469 540 34,000  Level FlightAware ADS-B
Wed 12:04:52 AM 39.1230 137.9550 347° North 511 588 34,000  Level FlightAware ADS-B
Wed 12:05:22 AM 39.1940 137.9640 North 520 598 34,000  Level FlightAware ADS-B
Wed 12:06:07 AM 39.3050 137.9710 North 516 594 34,000  Level FlightAware ADS-B
Wed 12:06:47 AM 39.4020 137.9760 North 516 594 34,000  Level FlightAware ADS-B
Wed 12:07:27 AM 39.4970 137.9820 North 516 594 34,000  Level FlightAware ADS-B
Wed 12:08:12 AM 39.6020 137.9880 North 518 596 34,000  Level FlightAware ADS-B
Wed 12:08:52 AM 39.6970 137.9940 North 512 589 34,000  Level FlightAware ADS-B
Wed 12:09:32 AM 39.7970 138.0000 North 511 588 34,000  Level FlightAware ADS-B
Wed 12:10:17 AM 39.9030 138.0070 North 512 589 34,000  Level FlightAware ADS-B
Wed 12:10:57 AM 39.9940 138.0120 North 514 592 34,000  Level FlightAware ADS-B
Wed 12:11:42 AM 40.0980 138.0190 North 515 593 34,000  Level FlightAware ADS-B
Wed 12:12:22 AM 40.2020 138.0250 North 516 594 34,000  Level FlightAware ADS-B
Wed 12:13:12 AM 40.3180 138.0320 North 517 595 34,000  Level FlightAware ADS-B
Wed 12:14:02 AM 40.4370 138.0400 North 518 596 34,000  Level FlightAware ADS-B
Wed 12:14:42 AM 40.5340 138.0460 North 517 595 34,000  Level FlightAware ADS-B
Wed 12:15:22 AM 40.6370 138.0520 North 515 593 34,000  Level FlightAware ADS-B
Wed 12:16:07 AM 40.7460 138.0590 North 517 595 34,000  Level FlightAware ADS-B
Wed 12:16:47 AM 40.8470 138.0650 North 517 595 34,000  Level FlightAware ADS-B
Wed 12:17:22 AM 40.9330 138.0710 North 517 595 34,000  Level FlightAware ADS-B
Wed 12:18:12 AM 41.0480 138.0780 North 516 594 34,000  Level FlightAware ADS-B
Wed 12:18:47 AM 41.1390 138.0840 North 516 594 34,000  Level FlightAware ADS-B
Wed 12:19:37 AM 41.2590 138.0920 North 530 610 34,000  Level FlightAware ADS-B
Wed 12:20:17 AM 41.3510 138.0970 North 534 615 34,000  Level FlightAware ADS-B
Wed 12:21:02 AM 41.4680 138.1050 North 529 609 34,000  Level FlightAware ADS-B
Wed 12:21:42 AM 41.5620 138.1110 North 527 606 34,000  Level FlightAware ADS-B
Wed 12:23:07 AM 41.7720 138.1250 North 527 606 34,000  Level FlightAware ADS-B
Wed 12:23:47 AM 41.8790 138.1320 North 527 606 34,000  Level FlightAware ADS-B
Wed 12:24:32 AM 41.9820 138.1380 North 532 612 34,000  Level FlightAware ADS-B
Wed 12:25:12 AM 42.0860 138.1450 North 531 611 34,000  Level FlightAware ADS-B
Wed 12:25:52 AM 42.1790 138.1510 North 532 612 34,000  Level FlightAware ADS-B
Wed 12:26:37 AM 42.2970 138.1590 North 531 611 34,000  Level FlightAware ADS-B
Wed 12:27:17 AM 42.3810 138.1650 North 531 611 34,000  Level FlightAware ADS-B
Wed 12:27:57 AM 42.4820 138.1710 North 531 611 34,000  Level FlightAware ADS-B
Wed 12:28:37 AM 42.5730 138.1770 North 531 611 34,000  Level FlightAware ADS-B
Wed 12:29:32 AM 42.7150 138.1860 North 531 611 34,000  Level FlightAware ADS-B
Wed 12:30:12 AM 42.7990 138.1900 North 531 611 34,000  Level FlightAware ADS-B
Wed 12:31:02 AM 42.9030 138.1950 North 531 611 34,000  Level FlightAware ADS-B
Wed 12:31:42 AM 42.9870 138.1990 North 531 611 34,000  Level FlightAware ADS-B
Wed 12:32:22 AM 43.0700 138.2030 North 531 611 34,000  Level FlightAware ADS-B
Wed 12:33:12 AM 43.1750 138.2080 North 531 611 34,000  Level FlightAware ADS-B
Wed 12:33:52 AM 43.3700 138.2310 North 531 611 34,000  Level FlightAware ADS-B
Wed 12:34:32 AM 43.4620 138.2360 North 531 611 34,000  Level FlightAware ADS-B
Wed 12:35:07 AM 43.5560 138.2440 North 532 612 34,000  Level FlightAware ADS-B
Wed 12:35:32 AM 43.6200 138.2460 North 527 606 34,000  Level FlightAware ADS-B
Wed 12:36:07 AM 43.6940 138.2420 358° North 530 610 34,000  Level FlightAware ADS-B
Wed 12:36:47 AM 43.7950 138.2350 357° North 531 611 34,000  Level FlightAware ADS-B
Wed 12:37:37 AM 43.8990 138.2270 357° North 531 611 34,000  Level FlightAware ADS-B
Wed 12:38:17 AM 43.9830 138.2210 357° North 531 611 34,000  Level FlightAware ADS-B
Wed 12:38:57 AM 44.0660 138.2150 357° North 531 611 34,000  Level FlightAware ADS-B
Wed 12:39:37 AM 44.1500 138.2090 357° North 531 611 34,000  Level FlightAware ADS-B
Wed 12:40:17 AM 44.2330 138.2030 357° North 531 611 34,000  Level FlightAware ADS-B
Wed 12:41:07 AM 44.3370 138.1950 357° North 531 611 34,000  Level FlightAware ADS-B
Wed 12:41:47 AM 44.4210 138.1890 357° North 531 611 34,000  Level FlightAware ADS-B
Wed 12:42:27 AM 44.5040 138.1830 357° North 531 611 34,000  Level FlightAware ADS-B
Wed 12:43:07 AM 44.5870 138.1770 357° North 531 611 34,000  Level FlightAware ADS-B
Wed 12:43:47 AM 44.6710 138.1710 357° North 531 611 34,000  Level FlightAware ADS-B
Wed 12:44:37 AM 44.7750 138.1630 357° North 531 611 34,000  Level FlightAware ADS-B
Wed 12:45:17 AM 44.8590 138.1570 357° North 531 611 34,000  Level FlightAware ADS-B
Wed 12:45:57 AM 44.9420 138.1510 357° North 531 611 34,000  Level FlightAware ADS-B
Wed 12:48:00 AM 45.1630 138.0049 335° Northwest  Level Estimated
Wed 12:49:00 AM 45.2707 137.9332 335° Northwest  Level Estimated
Wed 12:50:00 AM 45.3784 137.8613 335° Northwest  Level Estimated
Wed 12:51:00 AM 45.4860 137.7891 335° Northwest  Level Estimated
Wed 12:52:00 AM 45.5936 137.7166 335° Northwest  Level Estimated
Wed 12:53:00 AM 45.7012 137.6438 335° Northwest  Level Estimated
Wed 12:53:37 AM 46.2140 138.0890 335° Northwest 513 590 34,000  Level FlightAware ADS-B
Wed 12:54:22 AM 46.3260 138.0810 357° North 512 589 34,000  Level FlightAware ADS-B
Wed 12:55:02 AM 46.4070 138.0760 358° North 510 587 34,000  Level FlightAware ADS-B
Wed 12:55:47 AM 46.5080 138.0610 354° North 499 574 34,000  Level FlightAware ADS-B
Wed 12:56:27 AM 46.6040 138.0270 346° North 488 562 34,000  Level FlightAware ADS-B
Wed 12:57:12 AM 46.6940 137.9830 341° North 487 560 34,000  Level FlightAware ADS-B
Wed 12:57:52 AM 46.7900 137.9370 342° North 488 562 34,000  Level FlightAware ADS-B
Wed 12:58:32 AM 46.8730 137.8960 341° North 489 563 34,000  Level FlightAware ADS-B
Wed 12:59:17 AM 46.9670 137.8500 342° North 489 563 34,000  Level FlightAware ADS-B
Wed 12:59:57 AM 47.0440 137.8120 341° North 489 563 34,000  Level FlightAware ADS-B
Wed 01:00:42 AM 47.1460 137.7620 342° North 488 562 34,000  Level FlightAware ADS-B
Wed 01:01:17 AM 47.2330 137.7190 341° North 486 559 34,000  Level FlightAware ADS-B
Wed 01:02:02 AM 47.3200 137.6760 341° North 487 560 34,000  Level FlightAware ADS-B
Wed 01:02:42 AM 47.4290 137.6220 341° North 486 559 34,000  Level FlightAware ADS-B
Wed 01:03:27 AM 47.5180 137.5770 341° North 484 557 34,000  Level FlightAware ADS-B
Wed 01:04:12 AM 47.6080 137.5320 341° North 487 560 34,000  Level FlightAware ADS-B
Wed 01:04:47 AM 47.6880 137.4910 341° North 487 560 34,000  Level FlightAware ADS-B
Wed 01:05:32 AM 47.7750 137.4470 341° North 485 558 34,000  Level FlightAware ADS-B
Wed 01:06:17 AM 47.8760 137.3960 341° North 481 554 34,000  Level FlightAware ADS-B
Wed 01:06:52 AM 47.9490 137.3590 341° North 482 555 34,000  Level FlightAware ADS-B
Wed 01:07:42 AM 48.0530 137.3050 341° North 481 554 34,000  Level FlightAware ADS-B
Wed 01:08:22 AM 48.1370 137.2620 341° North 484 557 34,000  Level FlightAware ADS-B
Wed 01:09:02 AM 48.2220 137.2190 341° North 486 559 34,000  Level FlightAware ADS-B
Wed 01:09:42 AM 48.3010 137.1770 341° North 486 559 34,000  Level FlightAware ADS-B
Wed 01:10:22 AM 48.3890 137.1320 341° North 488 562 34,000  Level FlightAware ADS-B
Wed 01:11:12 AM 48.4870 137.0820 341° North 486 559 34,000  Level FlightAware ADS-B
Wed 01:11:42 AM 48.5610 137.0420 340° North 487 560 34,000  Level FlightAware ADS-B
Wed 01:12:32 AM 48.6670 136.9870 341° North 487 560 34,000  Level FlightAware ADS-B
Wed 01:13:12 AM 48.7570 136.9400 341° North 487 560 34,000  Level FlightAware ADS-B
Wed 01:14:27 AM 48.9130 136.8570 341° North 486 559 34,000  Level FlightAware ADS-B
Wed 01:15:02 AM 48.9830 136.8200 341° North 488 562 34,000  Level FlightAware ADS-B
Wed 01:15:42 AM 49.0870 136.7640 341° North 491 565 34,000  Level FlightAware ADS-B
Wed 01:16:32 AM 49.1810 136.7120 340° North 488 562 34,000  Level FlightAware ADS-B
Wed 01:17:42 AM 49.3270 136.6330 341° North 485 558 34,000  Level FlightAware ADS-B
Wed 01:18:22 AM 49.4120 136.5850 340° North 487 560 34,000  Level FlightAware ADS-B
Wed 01:19:02 AM 49.4900 136.5250 333° Northwest 476 548 34,000  Level FlightAware ADS-B
Wed 01:19:47 AM 49.5710 136.4520 330° Northwest 474 545 34,000  Level FlightAware ADS-B
Wed 01:20:27 AM 49.6530 136.3800 330° Northwest 471 542 34,000  Level FlightAware ADS-B
Wed 01:21:12 AM 49.7340 136.3010 328° Northwest 472 543 34,000  Level FlightAware ADS-B
Wed 01:21:52 AM 49.8140 136.2240 328° Northwest 476 548 34,000  Level FlightAware ADS-B
Wed 01:22:37 AM 49.8960 136.1450 328° Northwest 477 549 34,000  Level FlightAware ADS-B
Wed 01:23:32 AM 49.9980 136.0460 328° Northwest 477 549 34,000  Level FlightAware ADS-B
Wed 01:24:12 AM 50.0680 135.9790 328° Northwest 478 550 34,000  Level FlightAware ADS-B
Wed 01:25:07 AM 50.1640 135.8850 328° Northwest 478 550 34,000  Level FlightAware ADS-B
Wed 01:25:52 AM 50.2620 135.7890 328° Northwest 474 545 34,000  Level FlightAware ADS-B
Wed 01:26:27 AM 50.3230 135.7290 328° Northwest 473 544 34,000  Level FlightAware ADS-B
Wed 01:27:12 AM 50.4020 135.6510 328° Northwest 472 543 34,000  Level FlightAware ADS-B
Wed 01:27:57 AM 50.4940 135.5590 328° Northwest 476 548 34,000  Level FlightAware ADS-B
Wed 01:28:37 AM 50.5620 135.4920 328° Northwest 477 549 34,000  Level FlightAware ADS-B
Wed 01:29:22 AM 50.6440 135.4090 327° Northwest 476 548 34,000  Level FlightAware ADS-B
Wed 01:30:32 AM 50.7820 135.2710 328° Northwest 466 536 34,000  Level FlightAware ADS-B
Wed 01:31:12 AM 50.8460 135.2060 327° Northwest 467 537 34,000  Level FlightAware ADS-B
Wed 01:31:47 AM 50.9060 135.1450 327° Northwest 469 540 34,000  Level FlightAware ADS-B
Wed 01:32:37 AM 51.0070 135.0460 328° Northwest 471 542 34,000  Level FlightAware ADS-B
Wed 01:33:17 AM 51.0770 134.9770 328° Northwest 473 544 34,000  Level FlightAware ADS-B
Wed 01:34:02 AM 51.1660 134.8890 328° Northwest 476 548 34,000  Level FlightAware ADS-B
Wed 01:34:47 AM 51.2390 134.8160 328° Northwest 475 547 34,000  Level FlightAware ADS-B
Wed 01:35:17 AM 51.2970 134.7580 328° Northwest 470 541 34,000  Level FlightAware ADS-B
Wed 01:36:12 AM 51.4040 134.6500 328° Northwest 469 540 34,000  Level FlightAware ADS-B
Wed 01:36:52 AM 51.4770 134.5770 328° Northwest 468 539 34,000  Level FlightAware ADS-B
Wed 01:37:42 AM 51.5620 134.4910 328° Northwest 467 537 34,000  Level FlightAware ADS-B
Wed 01:38:27 AM 51.6390 134.4130 328° Northwest 468 539 34,000  Level FlightAware ADS-B
Wed 01:39:07 AM 51.7280 134.3230 328° Northwest 468 539 34,000  Level FlightAware ADS-B
Wed 01:39:42 AM 51.7880 134.2620 328° Northwest 470 541 34,000  Level FlightAware ADS-B
Wed 01:40:37 AM 51.8720 134.1740 327° Northwest 471 542 34,000  Level FlightAware ADS-B
Wed 01:41:17 AM 51.9340 134.1080 327° Northwest 471 542 34,000  Level FlightAware ADS-B
Wed 01:41:57 AM 51.9970 134.0430 328° Northwest 471 542 34,000  Level FlightAware ADS-B
Wed 01:42:37 AM 52.0590 133.9770 327° Northwest 471 542 34,000  Level FlightAware ADS-B
Wed 01:43:17 AM 52.1210 133.9120 327° Northwest 471 542 34,000  Level FlightAware ADS-B
Wed 01:44:07 AM 52.1990 133.8290 327° Northwest 471 542 34,000  Level FlightAware ADS-B
Wed 01:44:47 AM 52.2610 133.7640 327° Northwest 471 542 34,000  Level FlightAware ADS-B
Wed 01:45:27 AM 52.3230 133.6980 327° Northwest 471 542 34,000  Level FlightAware ADS-B
Wed 01:46:07 AM 52.3850 133.6310 327° Northwest 471 542 34,000  Level FlightAware ADS-B
Wed 01:46:47 AM 52.4470 133.5650 327° Northwest 471 542 34,000  Level FlightAware ADS-B
Wed 01:47:37 AM 52.5250 133.4820 327° Northwest 471 542 34,000  Level FlightAware ADS-B
Wed 01:48:17 AM 52.5870 133.4160 327° Northwest 471 542 34,000  Level FlightAware ADS-B
Wed 01:48:57 AM 52.6490 133.3500 327° Northwest 471 542 34,000  Level FlightAware ADS-B
Wed 01:49:37 AM 52.7110 133.2830 327° Northwest 471 542 34,000 -6,752 Level FlightAware ADS-B
Wed 01:52:00 AM 52.9591 133.0558 331° Northwest  Level Estimated
Wed 01:53:00 AM 53.0631 132.9597 331° Northwest  Level Estimated
Wed 01:54:00 AM 53.1670 132.8632 331° Northwest  Level Estimated
Wed 01:54:00 AM 53.6210 133.1930 328° Northwest -1  Level FlightAware Direct Aircraft Datalink
Wed 01:55:00 AM 53.2708 132.7662 331° Northwest  Level Estimated
Wed 01:56:00 AM 53.3746 132.6687 331° Northwest  Level Estimated
Wed 01:57:00 AM 53.4782 132.5707 331° Northwest  Level Estimated
Wed 01:58:00 AM 53.5818 132.4723 331° Northwest  Level Estimated
Wed 01:59:00 AM 53.6853 132.3733 330° Northwest  Level Estimated
Wed 02:00:00 AM 53.7887 132.2739 330° Northwest  Level Estimated
Wed 02:01:00 AM 53.8921 132.1740 330° Northwest  Level Estimated
Wed 02:02:00 AM 53.9953 132.0736 330° Northwest  Level Estimated
Wed 02:03:00 AM 54.0985 131.9727 330° Northwest  Level Estimated
Wed 02:04:00 AM 54.2016 131.8713 330° Northwest  Level Estimated
Wed 02:05:00 AM 54.3046 131.7693 330° Northwest  Level Estimated
Wed 02:06:00 AM 54.4075 131.6669 330° Northwest  Level Estimated
Wed 02:07:00 AM 54.5103 131.5640 330° Northwest  Level Estimated
Wed 02:08:00 AM 54.6131 131.4605 330° Northwest  Level Estimated
Wed 02:09:00 AM 54.7157 131.3565 330° Northwest  Level Estimated
Wed 02:10:00 AM 54.8183 131.2520 330° Northwest  Level Estimated
Wed 02:11:00 AM 54.9208 131.1470 330° Northwest  Level Estimated
Wed 02:12:00 AM 55.0231 131.0414 329° Northwest  Level Estimated
Wed 02:13:00 AM 55.1254 130.9353 329° Northwest  Level Estimated
Wed 02:14:00 AM 55.2276 130.8286 329° Northwest  Level Estimated
Wed 02:15:00 AM 55.3297 130.7214 329° Northwest  Level Estimated
Wed 02:16:00 AM 55.4317 130.6136 329° Northwest  Level Estimated
Wed 02:17:00 AM 55.5336 130.5053 329° Northwest  Level Estimated
Wed 02:18:00 AM 55.6355 130.3964 329° Northwest  Level Estimated
Wed 02:19:00 AM 55.7372 130.2869 329° Northwest  Level Estimated
Wed 02:20:00 AM 55.8388 130.1769 329° Northwest  Level Estimated
Wed 02:21:00 AM 55.9403 130.0663 329° Northwest  Level Estimated
Wed 02:22:00 AM 56.0418 129.9551 329° Northwest  Level Estimated
Wed 02:23:00 AM 56.1431 129.8433 328° Northwest  Level Estimated
Wed 02:24:00 AM 56.2443 129.7310 328° Northwest  Level Estimated
Wed 02:24:12 AM 56.7214 130.0107 331° Northwest  Level Estimated
Wed 02:26:00 AM 56.9034 129.8046 328° Northwest  Level Estimated
Wed 02:27:00 AM 57.0044 129.6893 328° Northwest  Level Estimated
Wed 02:28:00 AM 57.1053 129.5733 328° Northwest  Level Estimated
Wed 02:29:00 AM 57.2061 129.4567 328° Northwest  Level Estimated
Wed 02:30:00 AM 57.3067 129.3395 328° Northwest  Level Estimated
Wed 02:31:00 AM 57.4073 129.2216 328° Northwest  Level Estimated
Wed 02:32:00 AM 57.5077 129.1030 328° Northwest  Level Estimated
Wed 02:33:00 AM 57.6080 128.9839 328° Northwest  Level Estimated
Wed 02:34:00 AM 57.7082 128.8640 327° Northwest  Level Estimated
Wed 02:35:00 AM 57.8083 128.7435 327° Northwest  Level Estimated
Wed 02:36:00 AM 57.9083 128.6223 327° Northwest  Level Estimated
Wed 02:37:00 AM 58.0082 128.5005 327° Northwest  Level Estimated
Wed 02:38:00 AM 58.1080 128.3779 327° Northwest  Level Estimated
Wed 02:39:00 AM 58.2076 128.2547 327° Northwest  Level Estimated
Wed 02:40:00 AM 58.3071 128.1308 327° Northwest  Level Estimated
Wed 02:41:00 AM 58.4065 128.0061 327° Northwest  Level Estimated
Wed 02:42:00 AM 58.5058 127.8808 327° Northwest  Level Estimated
Wed 02:43:00 AM 58.6050 127.7548 327° Northwest  Level Estimated
Wed 02:44:00 AM 58.7040 127.6281 326° Northwest  Level Estimated
Wed 02:45:00 AM 58.8029 127.5006 326° Northwest  Level Estimated
Wed 02:46:00 AM 58.9017 127.3724 326° Northwest  Level Estimated
Wed 02:47:00 AM 59.0003 127.2434 326° Northwest  Level Estimated
Wed 02:48:00 AM 59.0988 127.1138 326° Northwest  Level Estimated
Wed 02:49:00 AM 59.1972 126.9833 326° Northwest  Level Estimated
Wed 02:50:00 AM 59.2955 126.8522 326° Northwest  Level Estimated
Wed 02:51:00 AM 59.3936 126.7202 326° Northwest  Level Estimated
Wed 02:52:00 AM 59.4916 126.5875 326° Northwest  Level Estimated
Wed 02:53:00 AM 59.5895 126.4540 325° Northwest  Level Estimated
Wed 02:54:00 AM 59.6872 126.3198 325° Northwest  Level Estimated
Wed 02:55:00 AM 59.7848 126.1848 325° Northwest  Level Estimated
Wed 02:56:00 AM 59.8822 126.0489 325° Northwest  Level Estimated
Wed 02:57:00 AM 59.9795 125.9123 325° Northwest  Level Estimated
Wed 02:58:00 AM 60.0767 125.7749 325° Northwest  Level Estimated
Wed 02:59:00 AM 60.1737 125.6366 325° Northwest  Level Estimated
Wed 03:00:00 AM 60.2706 125.4976 325° Northwest  Level Estimated
Wed 03:01:00 AM 60.3673 125.3577 324° Northwest  Level Estimated
Wed 03:02:00 AM 60.4639 125.2170 324° Northwest  Level Estimated
Wed 03:03:00 AM 60.5603 125.0754 324° Northwest  Level Estimated
Wed 03:04:00 AM 60.6566 124.9330 324° Northwest  Level Estimated
Wed 03:05:00 AM 60.7527 124.7897 324° Northwest  Level Estimated
Wed 03:06:00 AM 60.8487 124.6456 324° Northwest  Level Estimated
Wed 03:07:00 AM 60.9445 124.5006 324° Northwest  Level Estimated
Wed 03:08:00 AM 61.0402 124.3548 324° Northwest  Level Estimated
Wed 03:09:00 AM 61.1357 124.2080 323° Northwest  Level Estimated
Wed 03:10:00 AM 61.2310 124.0604 323° Northwest  Level Estimated
Wed 03:11:00 AM 61.3262 123.9119 323° Northwest  Level Estimated
Wed 03:12:00 AM 61.4212 123.7624 323° Northwest  Level Estimated
Wed 03:13:00 AM 61.5161 123.6121 323° Northwest  Level Estimated
Wed 03:14:00 AM 61.6107 123.4608 323° Northwest  Level Estimated
Wed 03:15:00 AM 61.7053 123.3086 323° Northwest  Level Estimated
Wed 03:16:00 AM 61.7996 123.1555 323° Northwest  Level Estimated
Wed 03:17:00 AM 61.8938 123.0014 322° Northwest  Level Estimated
Wed 03:18:00 AM 61.9878 122.8464 322° Northwest  Level Estimated
Wed 03:19:00 AM 62.0816 122.6905 322° Northwest  Level Estimated
Wed 03:20:00 AM 62.1753 122.5335 322° Northwest  Level Estimated
Wed 03:21:00 AM 62.2688 122.3756 322° Northwest  Level Estimated
Wed 03:22:00 AM 62.3621 122.2167 322° Northwest  Level Estimated
Wed 03:23:00 AM 62.4552 122.0568 322° Northwest  Level Estimated
Wed 03:24:00 AM 62.5481 121.8959 321° Northwest  Level Estimated
Wed 03:25:00 AM 62.6409 121.7340 321° Northwest  Level Estimated
Wed 03:26:00 AM 62.7334 121.5711 321° Northwest  Level Estimated
Wed 03:27:00 AM 62.8258 121.4072 321° Northwest  Level Estimated
Wed 03:28:00 AM 62.9179 121.2422 321° Northwest  Level Estimated
Wed 03:29:00 AM 63.0099 121.0762 321° Northwest  Level Estimated
Wed 03:30:00 AM 63.1017 120.9091 321° Northwest  Level Estimated
Wed 03:31:00 AM 63.1933 120.7410 320° Northwest  Level Estimated
Wed 03:32:00 AM 63.2847 120.5719 320° Northwest  Level Estimated
Wed 03:33:00 AM 63.3759 120.4016 320° Northwest  Level Estimated
Wed 03:34:00 AM 63.4669 120.2303 320° Northwest  Level Estimated
Wed 03:35:00 AM 63.5576 120.0578 320° Northwest  Level Estimated
Wed 03:36:00 AM 63.6482 119.8843 320° Northwest  Level Estimated
Wed 03:37:00 AM 63.7385 119.7097 319° Northwest  Level Estimated
Wed 03:38:00 AM 63.8287 119.5339 319° Northwest  Level Estimated
Wed 03:39:00 AM 63.9186 119.3570 319° Northwest  Level Estimated
Wed 03:40:00 AM 64.0083 119.1790 319° Northwest  Level Estimated
Wed 03:41:00 AM 64.0978 118.9998 319° Northwest  Level Estimated
Wed 03:42:00 AM 64.1871 118.8195 319° Northwest  Level Estimated
Wed 03:43:00 AM 64.2761 118.6380 319° Northwest  Level Estimated
Wed 03:44:00 AM 64.3650 118.4554 318° Northwest  Level Estimated
Wed 03:45:00 AM 64.4536 118.2715 318° Northwest  Level Estimated
Wed 03:46:00 AM 64.5419 118.0865 318° Northwest  Level Estimated
Wed 03:47:00 AM 64.6300 117.9003 318° Northwest  Level Estimated
Wed 03:48:00 AM 64.7179 117.7128 318° Northwest  Level Estimated
Wed 03:49:00 AM 64.8056 117.5242 318° Northwest  Level Estimated
Wed 03:50:00 AM 64.8930 117.3343 317° Northwest  Level Estimated
Wed 03:51:00 AM 64.9802 117.1431 317° Northwest  Level Estimated
Wed 03:52:00 AM 65.0671 116.9508 317° Northwest  Level Estimated
Wed 03:53:00 AM 65.1537 116.7571 317° Northwest  Level Estimated
Wed 03:54:00 AM 65.2402 116.5622 317° Northwest  Level Estimated
Wed 03:55:00 AM 65.3263 116.3660 316° Northwest  Level Estimated
Wed 03:56:00 AM 65.4122 116.1686 316° Northwest  Level Estimated
Wed 03:57:00 AM 65.4979 115.9698 316° Northwest  Level Estimated
Wed 03:58:00 AM 65.5833 115.7697 316° Northwest  Level Estimated
Wed 03:59:00 AM 65.6684 115.5683 316° Northwest  Level Estimated
Wed 04:00:00 AM 65.7533 115.3656 316° Northwest  Level Estimated
Wed 04:01:00 AM 65.8379 115.1616 315° West  Level Estimated
Wed 04:02:00 AM 65.9222 114.9562 315° West  Level Estimated
Wed 04:03:00 AM 66.0062 114.7494 315° West  Level Estimated
Wed 04:04:00 AM 66.0900 114.5413 315° West  Level Estimated
Wed 04:05:00 AM 66.1735 114.3318 315° West  Level Estimated
Wed 04:06:00 AM 66.2567 114.1209 314° West  Level Estimated
Wed 04:07:00 AM 66.3396 113.9087 314° West  Level Estimated
Wed 04:08:00 AM 66.4222 113.6950 314° West  Level Estimated
Wed 04:09:00 AM 66.5045 113.4799 314° West  Level Estimated
Wed 04:09:00 AM 66.8860 109.8230 306° West -1  Level FlightAware Direct Aircraft Datalink
Wed 04:10:00 AM 66.5865 113.2634 314° West  Level Estimated
Wed 04:11:00 AM 66.6683 113.0455 313° West  Level Estimated
Wed 04:12:00 AM 66.7497 112.8261 313° West  Level Estimated
Wed 04:13:00 AM 66.8308 112.6052 313° West  Level Estimated
Wed 04:14:00 AM 66.9116 112.3829 313° West  Level Estimated
Wed 04:15:00 AM 66.9921 112.1591 313° West  Level Estimated
Wed 04:16:00 AM 67.0722 111.9339 312° West  Level Estimated
Wed 04:17:00 AM 67.1521 111.7071 312° West  Level Estimated
Wed 04:18:00 AM 67.2290 111.4865 312° West  Level Estimated
Wed 04:19:00 AM 67.3082 111.2568 312° West  Level Estimated
Wed 04:20:00 AM 67.3871 111.0256 312° West  Level Estimated
Wed 04:21:00 AM 67.4656 110.7928 311° West  Level Estimated
Wed 04:22:00 AM 67.5439 110.5585 311° West  Level Estimated
Wed 04:23:00 AM 67.6217 110.3226 311° West  Level Estimated
Wed 04:24:00 AM 67.6993 110.0852 311° West  Level Estimated
Wed 04:25:00 AM 67.7764 109.8462 311° West  Level Estimated
Wed 04:26:00 AM 67.8533 109.6057 310° West  Level Estimated
Wed 04:27:00 AM 67.9297 109.3635 310° West  Level Estimated
Wed 04:28:00 AM 68.0059 109.1198 310° West  Level Estimated
Wed 04:29:00 AM 68.0816 108.8744 310° West  Level Estimated
Wed 04:30:00 AM 68.1570 108.6275 309° West  Level Estimated
Wed 04:31:00 AM 68.2320 108.3789 309° West  Level Estimated
Wed 04:32:00 AM 68.3067 108.1286 309° West  Level Estimated
Wed 04:33:00 AM 68.3810 107.8768 309° West  Level Estimated
Wed 04:34:00 AM 68.4548 107.6233 309° West  Level Estimated
Wed 04:35:00 AM 68.5284 107.3681 308° West  Level Estimated
Wed 04:36:00 AM 68.6015 107.1113 308° West  Level Estimated
Wed 04:37:00 AM 68.6742 106.8528 308° West  Level Estimated
Wed 04:38:00 AM 68.7465 106.5926 308° West  Level Estimated
Wed 04:39:00 AM 68.8184 106.3307 307° West  Level Estimated
Wed 04:40:00 AM 68.8899 106.0672 307° West  Level Estimated
Wed 04:41:00 AM 68.9610 105.8019 307° West  Level Estimated
Wed 04:42:00 AM 69.0317 105.5349 307° West  Level Estimated
Wed 04:43:00 AM 69.1020 105.2662 306° West  Level Estimated
Wed 04:44:00 AM 69.1718 104.9958 306° West  Level Estimated
Wed 04:44:03 AM 69.3860 100.8392 311° West  Level Estimated
Wed 04:46:00 AM 69.5099 100.2805 303° West  Level Estimated
Wed 04:47:00 AM 69.5727 99.9914 302° West  Level Estimated
Wed 04:48:00 AM 69.6351 99.7007 302° West  Level Estimated
Wed 04:49:00 AM 69.6970 99.4083 301° West  Level Estimated
Wed 04:50:00 AM 69.7583 99.1141 301° West  Level Estimated
Wed 04:51:00 AM 69.8192 98.8183 301° West  Level Estimated
Wed 04:52:00 AM 69.8796 98.5207 301° West  Level Estimated
Wed 04:53:00 AM 69.9395 98.2215 300° West  Level Estimated
Wed 04:54:00 AM 69.9989 97.9205 300° West  Level Estimated
Wed 04:55:00 AM 70.0578 97.6178 300° West  Level Estimated
Wed 04:56:00 AM 70.1161 97.3134 300° West  Level Estimated
Wed 04:57:00 AM 70.1740 97.0073 299° West  Level Estimated
Wed 04:58:00 AM 70.2313 96.6995 299° West  Level Estimated
Wed 04:59:00 AM 70.2880 96.3900 299° West  Level Estimated
Wed 05:00:00 AM 70.3443 96.0787 298° West  Level Estimated
Wed 05:01:00 AM 70.4000 95.7658 298° West  Level Estimated
Wed 05:02:00 AM 70.4552 95.4511 298° West  Level Estimated
Wed 05:03:00 AM 70.5098 95.1348 297° West  Level Estimated
Wed 05:04:00 AM 70.5639 94.8167 297° West  Level Estimated
Wed 05:05:00 AM 70.6174 94.4969 297° West  Level Estimated
Wed 05:06:00 AM 70.6703 94.1755 297° West  Level Estimated
Wed 05:07:00 AM 70.7227 93.8524 296° West  Level Estimated
Wed 05:08:00 AM 70.7745 93.5275 296° West  Level Estimated
Wed 05:09:00 AM 70.8258 93.2010 296° West  Level Estimated
Wed 05:10:00 AM 70.8764 92.8729 295° West  Level Estimated
Wed 05:11:00 AM 70.9265 92.5430 295° West  Level Estimated
Wed 05:12:00 AM 70.9760 92.2115 295° West  Level Estimated
Wed 05:13:00 AM 71.0249 91.8784 294° West  Level Estimated
Wed 05:14:00 AM 71.0732 91.5436 294° West  Level Estimated
Wed 05:15:00 AM 71.1208 91.2071 294° West  Level Estimated
Wed 05:16:00 AM 71.1679 90.8690 293° West  Level Estimated
Wed 05:17:00 AM 71.2144 90.5293 293° West  Level Estimated
Wed 05:18:00 AM 71.2602 90.1880 293° West  Level Estimated
Wed 05:19:00 AM 71.3055 89.8451 293° West  Level Estimated
Wed 05:20:00 AM 71.3501 89.5006 292° West  Level Estimated
Wed 05:21:00 AM 71.3940 89.1545 292° West  Level Estimated
Wed 05:22:00 AM 71.4374 88.8069 292° West  Level Estimated
Wed 05:23:00 AM 71.4801 88.4576 291° West  Level Estimated
Wed 05:24:00 AM 71.5221 88.1069 291° West  Level Estimated
Wed 05:25:00 AM 71.5635 87.7546 291° West  Level Estimated
Wed 05:26:00 AM 71.6043 87.4008 290° West  Level Estimated
Wed 05:27:00 AM 71.6444 87.0455 290° West  Level Estimated
Wed 05:28:00 AM 71.6838 86.6887 290° West  Level Estimated
Wed 05:29:00 AM 71.7226 86.3304 289° West  Level Estimated
Wed 05:30:00 AM 71.7607 85.9706 289° West  Level Estimated
Wed 05:31:00 AM 71.7981 85.6095 289° West  Level Estimated
Wed 05:32:00 AM 71.8348 85.2468 288° West  Level Estimated
Wed 05:33:00 AM 71.8709 84.8828 288° West  Level Estimated
Wed 05:34:00 AM 71.9063 84.5174 287° West  Level Estimated
Wed 05:35:00 AM 71.9410 84.1507 287° West  Level Estimated
Wed 05:36:00 AM 71.9750 83.7825 287° West  Level Estimated
Wed 05:37:00 AM 72.0082 83.4131 286° West  Level Estimated
Wed 05:38:00 AM 72.0408 83.0423 286° West  Level Estimated
Wed 05:39:00 AM 72.0727 82.6703 286° West  Level Estimated
Wed 05:40:00 AM 72.1039 82.2970 285° West  Level Estimated
Wed 05:41:00 AM 72.1344 81.9224 285° West  Level Estimated
Wed 05:42:00 AM 72.1641 81.5466 285° West  Level Estimated
Wed 05:43:00 AM 72.1931 81.1696 284° West  Level Estimated
Wed 05:44:00 AM 72.2214 80.7915 284° West  Level Estimated
Wed 05:45:00 AM 72.2490 80.4121 284° West  Level Estimated
Wed 05:46:00 AM 72.2758 80.0317 283° West  Level Estimated
Wed 05:47:00 AM 72.3019 79.6501 283° West  Level Estimated
Wed 05:48:00 AM 72.3273 79.2675 282° West  Level Estimated
Wed 05:49:00 AM 72.3519 78.8839 282° West  Level Estimated
Wed 05:50:00 AM 72.3758 78.4992 282° West  Level Estimated
Wed 05:51:00 AM 72.3989 78.1135 281° West  Level Estimated
Wed 05:52:00 AM 72.4213 77.7268 281° West  Level Estimated
Wed 05:53:00 AM 72.4429 77.3392 281° West  Level Estimated
Wed 05:54:00 AM 72.4638 76.9507 280° West  Level Estimated
Wed 05:55:00 AM 72.4839 76.5614 280° West  Level Estimated
Wed 05:56:00 AM 72.5033 76.1711 280° West  Level Estimated
Wed 05:57:00 AM 72.5219 75.7801 279° West  Level Estimated
Wed 05:58:00 AM 72.5397 75.3882 279° West  Level Estimated
Wed 05:59:00 AM 72.5567 74.9956 278° West  Level Estimated
Wed 06:00:00 AM 72.5730 74.6023 278° West  Level Estimated
Wed 06:01:00 AM 72.5885 74.2083 278° West  Level Estimated
Wed 06:02:00 AM 72.6033 73.8136 277° West  Level Estimated
Wed 06:03:00 AM 72.6172 73.4183 277° West  Level Estimated
Wed 06:04:00 AM 72.6304 73.0223 277° West  Level Estimated
Wed 06:05:00 AM 72.6428 72.6259 276° West  Level Estimated
Wed 06:06:00 AM 72.6544 72.2288 276° West  Level Estimated
Wed 06:07:00 AM 72.6653 71.8313 275° West  Level Estimated
Wed 06:08:00 AM 72.6753 71.4333 275° West  Level Estimated
Wed 06:09:00 AM 72.6846 71.0349 275° West  Level Estimated
Wed 06:10:00 AM 72.6930 70.6361 274° West  Level Estimated
Wed 06:11:00 AM 72.7007 70.2370 274° West  Level Estimated
Wed 06:12:00 AM 72.7076 69.8374 274° West  Level Estimated
Wed 06:13:00 AM 72.7137 69.4377 273° West  Level Estimated
Wed 06:14:00 AM 72.7190 69.0376 273° West  Level Estimated
Wed 06:15:00 AM 72.7236 68.6374 272° West  Level Estimated
Wed 06:16:00 AM 72.7273 68.2369 272° West  Level Estimated
Wed 06:17:00 AM 72.7302 67.8363 272° West  Level Estimated
Wed 06:18:00 AM 72.7324 67.4356 271° West  Level Estimated
Wed 06:19:00 AM 72.7337 67.0348 271° West  Level Estimated
Wed 06:20:00 AM 72.7343 66.6340 270° West  Level Estimated
Wed 06:21:00 AM 72.7340 66.2331 270° West  Level Estimated
Wed 06:22:00 AM 72.7330 65.8323 270° West  Level Estimated
Wed 06:23:00 AM 72.7311 65.4316 269° West  Level Estimated
Wed 06:24:00 AM 72.7285 65.0309 269° West  Level Estimated
Wed 06:25:00 AM 72.7251 64.6304 269° West  Level Estimated
Wed 06:26:00 AM 72.7209 64.2301 268° West  Level Estimated
Wed 06:27:00 AM 72.7159 63.8299 268° West  Level Estimated
Wed 06:28:00 AM 72.7101 63.4301 267° West  Level Estimated
Wed 06:29:00 AM 72.7035 63.0304 267° West  Level Estimated
Wed 06:30:00 AM 72.6961 62.6311 267° West  Level Estimated
Wed 06:31:00 AM 72.6879 62.2322 266° West  Level Estimated
Wed 06:32:00 AM 72.6789 61.8336 266° West  Level Estimated
Wed 06:33:00 AM 72.6692 61.4355 265° West  Level Estimated
Wed 06:34:00 AM 72.6587 61.0378 265° West  Level Estimated
Wed 06:35:00 AM 72.6473 60.6406 265° West  Level Estimated
Wed 06:36:00 AM 72.6352 60.2439 264° West  Level Estimated
Wed 06:37:00 AM 72.6224 59.8477 264° West  Level Estimated
Wed 06:38:00 AM 72.6087 59.4522 264° West  Level Estimated
Wed 06:39:00 AM 72.5943 59.0573 263° West  Level Estimated
Wed 06:40:00 AM 72.5790 58.6630 263° West  Level Estimated
Wed 06:41:00 AM 72.5630 58.2694 262° West  Level Estimated
Wed 06:42:00 AM 72.5463 57.8765 262° West  Level Estimated
Wed 06:43:00 AM 72.5288 57.4843 262° West  Level Estimated
Wed 06:44:00 AM 72.5105 57.0930 261° West  Level Estimated
Wed 06:45:00 AM 72.4914 56.7024 261° West  Level Estimated
Wed 06:46:00 AM 72.4716 56.3127 261° West  Level Estimated
Wed 06:47:00 AM 72.4510 55.9239 260° West  Level Estimated
Wed 06:48:00 AM 72.4296 55.5359 260° West  Level Estimated
Wed 06:49:00 AM 72.4075 55.1489 259° West  Level Estimated
Wed 06:50:00 AM 72.3847 54.7629 259° West  Level Estimated
Wed 06:51:00 AM 72.3611 54.3778 259° West  Level Estimated
Wed 06:52:00 AM 72.3367 53.9938 258° West  Level Estimated
Wed 06:53:00 AM 72.3117 53.6107 258° West  Level Estimated
Wed 06:54:00 AM 72.2859 53.2288 258° West  Level Estimated
Wed 06:55:00 AM 72.2593 52.8479 257° West  Level Estimated
Wed 06:56:00 AM 72.2320 52.4682 257° West  Level Estimated
Wed 06:57:00 AM 72.2040 52.0895 257° West  Level Estimated
Wed 06:58:00 AM 72.1752 51.7121 256° West  Level Estimated
Wed 06:59:00 AM 72.1458 51.3358 256° West  Level Estimated
Wed 07:00:00 AM 72.1156 50.9608 255° West  Level Estimated
Wed 07:01:00 AM 72.0847 50.5870 255° West  Level Estimated
Wed 07:02:00 AM 72.0531 50.2145 255° West  Level Estimated
Wed 07:03:00 AM 72.0207 49.8432 254° West  Level Estimated
Wed 07:04:00 AM 71.9877 49.4733 254° West  Level Estimated
Wed 07:05:00 AM 71.9540 49.1046 254° West  Level Estimated
Wed 07:06:00 AM 71.9196 48.7374 253° West  Level Estimated
Wed 07:07:00 AM 71.8845 48.3714 253° West  Level Estimated
Wed 07:08:00 AM 71.8486 48.0069 253° West  Level Estimated
Wed 07:09:00 AM 71.8122 47.6437 252° West  Level Estimated
Wed 07:10:00 AM 71.7750 47.2820 252° West  Level Estimated
Wed 07:11:00 AM 71.7372 46.9217 252° West  Level Estimated
Wed 07:12:00 AM 71.6986 46.5629 251° West  Level Estimated
Wed 07:13:00 AM 71.6595 46.2055 251° West  Level Estimated
Wed 07:14:00 AM 71.6196 45.8496 251° West  Level Estimated
Wed 07:15:00 AM 71.5791 45.4953 250° West  Level Estimated
Wed 07:16:00 AM 71.5380 45.1424 250° West  Level Estimated
Wed 07:17:00 AM 71.4961 44.7910 250° West  Level Estimated
Wed 07:18:00 AM 71.4537 44.4412 249° West  Level Estimated
Wed 07:19:00 AM 71.4106 44.0930 249° West  Level Estimated
Wed 07:20:00 AM 71.3669 43.7463 249° West  Level Estimated
Wed 07:21:00 AM 71.3225 43.4012 248° West  Level Estimated
Wed 07:22:00 AM 71.2775 43.0577 248° West  Level Estimated
Wed 07:23:00 AM 71.2319 42.7157 248° West  Level Estimated
Wed 07:24:00 AM 71.1857 42.3754 247° West  Level Estimated
Wed 07:25:00 AM 71.1388 42.0367 247° West  Level Estimated
Wed 07:26:00 AM 71.0914 41.6997 247° West  Level Estimated
Wed 07:27:00 AM 71.0433 41.3642 246° West  Level Estimated
Wed 07:27:42 AM 67.3040 41.0370 246° West 451 519 38,000  Level FlightAware ADS-B
Wed 07:28:00 AM 70.9947 41.0304 246° West  Level Estimated
Wed 07:28:17 AM 67.2780 40.8670 248° West 455 524 38,000  Level FlightAware ADS-B
Wed 07:29:17 AM 67.2330 40.5720 249° West 456 525 38,000  Level FlightAware ADS-B
Wed 07:30:02 AM 67.1980 40.3630 247° West 456 525 38,000  Level FlightAware ADS-B
Wed 07:30:57 AM 67.2130 40.4510 66° East 461 531 38,000  Level FlightAware ADS-B
Wed 07:31:37 AM 67.1840 40.2790 247° West 461 531 38,000  Level FlightAware ADS-B
Wed 07:32:27 AM 67.1490 40.0640 247° West 461 531 38,000  Level FlightAware ADS-B
Wed 07:33:07 AM 67.1210 39.8920 247° West 461 531 38,000  Level FlightAware ADS-B
Wed 07:33:47 AM 67.0920 39.7210 247° West 461 531 38,000  Level FlightAware ADS-B
Wed 07:34:27 AM 67.0640 39.5490 247° West 461 531 38,000  Level FlightAware ADS-B
Wed 07:35:07 AM 67.0360 39.3780 247° West 461 531 38,000  Level FlightAware ADS-B
Wed 07:35:57 AM 67.0000 39.1650 247° West 461 531 38,000  Level FlightAware ADS-B
Wed 07:36:37 AM 66.9720 38.9940 247° West 461 531 38,000  Level FlightAware ADS-B
Wed 07:37:17 AM 66.9430 38.8230 247° West 461 531 38,000  Level FlightAware ADS-B
Wed 07:37:57 AM 66.9150 38.6530 247° West 461 531 38,000  Level FlightAware ADS-B
Wed 07:38:37 AM 66.8870 38.4830 247° West 461 531 38,000  Level FlightAware ADS-B
Wed 07:39:27 AM 66.8510 38.2710 247° West 461 531 38,000  Level FlightAware ADS-B
Wed 07:40:07 AM 66.8230 38.1010 247° West 461 531 38,000  Level FlightAware ADS-B
Wed 07:40:42 AM 67.2330 40.5720 245° Southwest 712 819 38,000  Level FlightAware ADS-B
Wed 07:42:00 AM 66.7462 37.5670 250° West  Level Estimated
Wed 07:43:00 AM 66.7047 37.2849 250° West  Level Estimated
Wed 07:44:00 AM 66.6627 37.0036 249° West  Level Estimated
Wed 07:45:00 AM 66.6202 36.7234 249° West  Level Estimated
Wed 07:46:00 AM 66.5772 36.4441 249° West  Level Estimated
Wed 07:47:00 AM 66.5337 36.1658 249° West  Level Estimated
Wed 07:48:00 AM 66.4896 35.8884 248° West  Level Estimated
Wed 07:49:00 AM 66.4452 35.6121 248° West  Level Estimated
Wed 07:50:00 AM 66.4002 35.3367 248° West  Level Estimated
Wed 07:51:00 AM 66.3547 35.0623 248° West  Level Estimated
Wed 07:52:00 AM 66.3088 34.7890 247° West  Level Estimated
Wed 07:53:00 AM 66.2624 34.5166 247° West  Level Estimated
Wed 07:54:00 AM 66.2155 34.2452 247° West  Level Estimated
Wed 07:55:00 AM 66.1681 33.9749 247° West  Level Estimated
Wed 07:56:00 AM 66.1203 33.7055 246° West  Level Estimated
Wed 07:57:00 AM 66.0720 33.4372 246° West  Level Estimated
Wed 07:58:00 AM 66.0232 33.1699 246° West  Level Estimated
Wed 07:59:00 AM 65.9740 32.9036 246° West  Level Estimated
Wed 08:00:00 AM 65.9243 32.6384 245° Southwest  Level Estimated
Wed 08:01:00 AM 65.8741 32.3742 245° Southwest  Level Estimated
Wed 08:01:12 AM 65.4240 31.5260 248° West 464 534 38,000  Level FlightAware ADS-B
Wed 08:01:57 AM 65.3750 31.3260 240° Southwest 466 536 38,000  Level FlightAware ADS-B
Wed 08:02:37 AM 65.3310 31.1510 239° Southwest 467 537 38,000  Level FlightAware ADS-B
Wed 08:03:17 AM 65.2850 30.9660 239° Southwest 468 539 38,000  Level FlightAware ADS-B
Wed 08:04:02 AM 65.2360 30.7730 239° Southwest 467 537 38,000  Level FlightAware ADS-B
Wed 08:04:42 AM 65.1900 30.5940 239° Southwest 464 534 38,000  Level FlightAware ADS-B
Wed 08:05:27 AM 65.1410 30.4050 238° Southwest 462 532 38,000  Level FlightAware ADS-B
Wed 08:06:22 AM 65.0790 30.1640 239° Southwest 461 531 38,000  Level FlightAware ADS-B
Wed 08:07:02 AM 65.0330 29.9920 238° Southwest 461 531 38,000  Level FlightAware ADS-B
Wed 08:07:42 AM 64.9900 29.8260 239° Southwest 462 532 38,000  Level FlightAware ADS-B
Wed 08:08:27 AM 64.9360 29.6370 236° Southwest 464 534 38,000  Level FlightAware ADS-B
Wed 08:09:07 AM 64.8770 29.4860 227° Southwest 467 537 38,000  Level FlightAware ADS-B
Wed 08:09:52 AM 64.8160 29.3200 229° Southwest 467 537 38,000  Level FlightAware ADS-B
Wed 08:10:32 AM 64.7570 29.1690 228° Southwest 468 539 38,000  Level FlightAware ADS-B
Wed 08:11:17 AM 64.6890 28.9980 227° Southwest 468 539 38,000  Level FlightAware ADS-B
Wed 08:12:02 AM 64.6250 28.8370 227° Southwest 465 535 38,000  Level FlightAware ADS-B
Wed 08:12:42 AM 64.5660 28.6930 226° Southwest 464 534 38,000  Level FlightAware ADS-B
Wed 08:13:22 AM 64.5060 28.5450 227° Southwest 466 536 38,000  Level FlightAware ADS-B
Wed 08:14:07 AM 64.4380 28.3800 226° Southwest 469 540 38,000  Level FlightAware ADS-B
Wed 08:14:47 AM 64.3770 28.2330 226° Southwest 471 542 38,000  Level FlightAware ADS-B
Wed 08:15:32 AM 64.3100 28.0710 226° Southwest 471 542 38,000  Level FlightAware ADS-B
Wed 08:16:12 AM 64.2530 27.9340 226° Southwest 470 541 38,000  Level FlightAware ADS-B
Wed 08:16:52 AM 64.1920 27.7910 226° Southwest 469 540 38,000  Level FlightAware ADS-B
Wed 08:17:37 AM 64.1230 27.6280 226° Southwest 469 540 38,000  Level FlightAware ADS-B
Wed 08:18:17 AM 64.0620 27.4860 226° Southwest 468 539 38,000  Level FlightAware ADS-B
Wed 08:18:57 AM 64.0020 27.3470 225° Southwest 470 541 38,000  Level FlightAware ADS-B
Wed 08:19:42 AM 63.9350 27.1920 226° Southwest 470 541 38,000  Level FlightAware ADS-B
Wed 08:20:22 AM 63.8730 27.0500 225° Southwest 470 541 38,000  Level FlightAware ADS-B
Wed 08:21:02 AM 63.8110 26.9100 225° Southwest 471 542 38,000  Level FlightAware ADS-B
Wed 08:21:47 AM 63.7420 26.7540 225° Southwest 471 542 38,000  Level FlightAware ADS-B
Wed 08:22:27 AM 63.6800 26.6160 225° Southwest 473 544 38,000  Level FlightAware ADS-B
Wed 08:23:12 AM 63.6120 26.4630 225° Southwest 474 545 38,000  Level FlightAware ADS-B
Wed 08:23:52 AM 63.5500 26.3280 224° Southwest 470 541 38,000  Level FlightAware ADS-B
Wed 08:24:32 AM 63.4870 26.1880 225° Southwest 469 540 38,000  Level FlightAware ADS-B
Wed 08:25:17 AM 63.4180 26.0380 224° Southwest 470 541 38,000  Level FlightAware ADS-B
Wed 08:25:57 AM 63.3600 25.9120 224° Southwest 471 542 38,000  Level FlightAware ADS-B
Wed 08:26:37 AM 63.2990 25.7800 224° Southwest 470 541 38,000  Level FlightAware ADS-B
Wed 08:27:22 AM 63.2270 25.6280 224° Southwest 467 537 38,000  Level FlightAware ADS-B
Wed 08:28:02 AM 63.1650 25.4950 224° Southwest 470 541 38,000  Level FlightAware ADS-B
Wed 08:28:47 AM 63.0950 25.3470 224° Southwest 468 539 38,000  Level FlightAware ADS-B
Wed 08:29:27 AM 63.0310 25.2140 223° Southwest 467 537 38,000  Level FlightAware ADS-B
Wed 08:30:07 AM 62.9700 25.0870 223° Southwest 469 540 38,000  Level FlightAware ADS-B
Wed 08:30:52 AM 62.8970 24.9360 223° Southwest 465 535 38,000  Level FlightAware ADS-B
Wed 08:31:22 AM 62.8490 24.8370 223° Southwest 465 535 38,000  Level FlightAware ADS-B
Wed 08:32:02 AM 62.7870 24.7090 223° Southwest 464 534 38,000  Level FlightAware ADS-B
Wed 08:32:42 AM 62.7240 24.5800 223° Southwest 462 532 38,000  Level FlightAware ADS-B
Wed 08:33:27 AM 62.6520 24.4370 222° Southwest 461 531 38,000  Level FlightAware ADS-B
Wed 08:34:07 AM 62.5890 24.3090 223° Southwest 461 531 38,000  Level FlightAware ADS-B
Wed 08:34:47 AM 62.5280 24.1880 222° Southwest 460 529 38,000  Level FlightAware ADS-B
Wed 08:35:32 AM 62.4550 24.0420 223° Southwest 460 529 38,000  Level FlightAware ADS-B
Wed 08:36:12 AM 62.3910 23.9160 222° Southwest 457 526 38,000  Level FlightAware ADS-B
Wed 08:36:57 AM 62.3230 23.7830 222° Southwest 459 528 38,000  Level FlightAware ADS-B
Wed 08:37:42 AM 62.2470 23.6350 222° Southwest 473 544 38,000  Level FlightAware ADS-B
Wed 08:38:22 AM 62.1840 23.5150 222° Southwest 472 543 38,000  Level FlightAware ADS-B
Wed 08:39:02 AM 62.1200 23.3900 222° Southwest 460 529 38,000  Level FlightAware ADS-B
Wed 08:39:42 AM 62.0550 23.2660 222° Southwest 458 527 38,000  Level FlightAware ADS-B
Wed 08:40:27 AM 61.9820 23.1280 222° Southwest 455 524 38,000  Level FlightAware ADS-B
Wed 08:41:07 AM 61.9200 23.0110 222° Southwest 458 527 38,000  Level FlightAware ADS-B
Wed 08:41:52 AM 61.8480 22.8760 222° Southwest 456 525 38,000  Level FlightAware ADS-B
Wed 08:42:32 AM 61.7850 22.7600 221° Southwest 453 521 38,000  Level FlightAware ADS-B
Wed 08:43:17 AM 61.7120 22.6250 221° Southwest 451 519 38,000  Level FlightAware ADS-B
Wed 08:43:57 AM 61.6490 22.5080 221° Southwest 455 524 38,000  Level FlightAware ADS-B
Wed 08:44:37 AM 61.5860 22.3870 222° Southwest 454 522 38,000  Level FlightAware ADS-B
Wed 08:45:22 AM 61.5170 22.2470 224° Southwest 452 520 38,000  Level FlightAware ADS-B
Wed 08:46:02 AM 61.4570 22.1270 224° Southwest 449 517 38,000  Level FlightAware ADS-B
Wed 08:46:47 AM 61.3880 21.9900 224° Southwest 446 513 38,000  Level FlightAware ADS-B
Wed 08:47:27 AM 61.3310 21.8780 223° Southwest 442 509 38,000  Level FlightAware ADS-B
Wed 08:48:07 AM 61.2730 21.7670 223° Southwest 438 504 38,000  Level FlightAware ADS-B
Wed 08:48:52 AM 61.2020 21.6290 223° Southwest 439 505 38,000  Level FlightAware ADS-B
Wed 08:49:32 AM 61.1450 21.5170 224° Southwest 440 506 38,000  Level FlightAware ADS-B
Wed 08:50:17 AM 61.0770 21.3870 223° Southwest 444 511 38,000  Level FlightAware ADS-B
Wed 08:50:57 AM 61.0160 21.2720 222° Southwest 442 509 38,000  Level FlightAware ADS-B
Wed 08:51:37 AM 60.9550 21.1560 223° Southwest 445 512 38,000 565 Level FlightAware ADS-B
Wed 08:52:22 AM 60.8850 21.0240 223° Southwest 442 509 38,800 1,129 Climbing FlightAware ADS-B
Wed 08:53:02 AM 60.8260 20.9140 222° Southwest 436 502 39,600 847 Climbing FlightAware ADS-B
Wed 08:53:47 AM 60.7580 20.7870 222° Southwest 440 506 40,000 282 Climbing FlightAware ADS-B
Wed 08:54:27 AM 60.7010 20.6800 223° Southwest 440 506 40,000  Level FlightAware ADS-B
Wed 08:55:07 AM 60.6350 20.5600 222° Southwest 438 504 40,000  Level FlightAware ADS-B
Wed 08:55:52 AM 60.5670 20.4340 222° Southwest 436 502 40,000  Level FlightAware ADS-B
Wed 08:56:32 AM 60.5070 20.3260 222° Southwest 437 503 40,000  Level FlightAware ADS-B
Wed 08:57:12 AM 60.4480 20.2190 222° Southwest 436 502 40,000  Level FlightAware ADS-B
Wed 08:57:57 AM 60.3760 20.0900 222° Southwest 444 511 40,000  Level FlightAware ADS-B
Wed 08:58:37 AM 60.3160 19.9810 222° Southwest 443 510 40,000  Level FlightAware ADS-B
Wed 08:59:22 AM 60.2450 19.8550 221° Southwest 440 506 40,000  Level FlightAware ADS-B
Wed 09:00:02 AM 60.1840 19.7470 221° Southwest 443 510 40,000  Level FlightAware ADS-B
Wed 09:00:42 AM 60.1220 19.6370 221° Southwest 445 512 40,000  Level FlightAware ADS-B
Wed 09:01:27 AM 60.0560 19.5210 221° Southwest 447 514 40,000  Level FlightAware ADS-B
Wed 09:02:12 AM 59.9870 19.3900 224° Southwest 438 504 40,000  Level FlightAware ADS-B
Wed 09:02:52 AM 59.9380 19.2590 233° Southwest 431 496 40,000  Level FlightAware ADS-B
Wed 09:03:32 AM 59.8980 19.1260 239° Southwest 430 495 40,000  Level FlightAware ADS-B
Wed 09:04:17 AM 59.8530 18.9790 239° Southwest 427 491 40,000  Level FlightAware ADS-B
Wed 09:04:57 AM 59.8110 18.8460 238° Southwest 427 491 40,000  Level FlightAware ADS-B
Wed 09:05:42 AM 59.7620 18.6920 238° Southwest 429 494 40,000  Level FlightAware ADS-B
Wed 09:06:22 AM 59.7130 18.5660 232° Southwest 443 510 40,000  Level FlightAware ADS-B
Wed 09:07:02 AM 59.6540 18.4540 224° Southwest 445 512 40,000  Level FlightAware ADS-B
Wed 09:07:42 AM 59.5960 18.3400 225° Southwest 449 517 40,000  Level FlightAware ADS-B
Wed 09:08:27 AM 59.5310 18.2170 224° Southwest 451 519 40,000  Level FlightAware ADS-B
Wed 09:09:07 AM 59.4700 18.1010 224° Southwest 450 518 40,000  Level FlightAware ADS-B
Wed 09:09:52 AM 59.4020 17.9720 224° Southwest 447 514 40,000  Level FlightAware ADS-B
Wed 09:10:32 AM 59.3430 17.8590 224° Southwest 442 509 40,000  Level FlightAware ADS-B
Wed 09:11:17 AM 59.2780 17.7370 224° Southwest 444 511 40,000  Level FlightAware ADS-B
Wed 09:11:57 AM 59.2170 17.6230 224° Southwest 449 517 40,000  Level FlightAware ADS-B
Wed 09:12:37 AM 59.1570 17.5120 224° Southwest 445 512 40,000  Level FlightAware ADS-B
Wed 09:13:22 AM 59.0910 17.3890 224° Southwest 441 507 40,000  Level FlightAware ADS-B
Wed 09:14:02 AM 59.0320 17.2770 224° Southwest 439 505 40,000  Level FlightAware ADS-B
Wed 09:14:47 AM 58.9680 17.1560 224° Southwest 442 509 40,000  Level FlightAware ADS-B
Wed 09:15:27 AM 58.9080 17.0450 224° Southwest 440 506 40,000  Level FlightAware ADS-B
Wed 09:16:07 AM 58.8510 16.9390 224° Southwest 433 498 40,000  Level FlightAware ADS-B
Wed 09:16:52 AM 58.7830 16.8150 223° Southwest 431 496 40,000  Level FlightAware ADS-B
Wed 09:17:32 AM 58.7280 16.7130 224° Southwest 432 497 40,000  Level FlightAware ADS-B
Wed 09:18:17 AM 58.6620 16.5910 224° Southwest 436 502 40,000  Level FlightAware ADS-B
Wed 09:18:57 AM 58.6030 16.4850 223° Southwest 437 503 40,000  Level FlightAware ADS-B
Wed 09:19:42 AM 58.5380 16.3680 223° Southwest 439 505 40,000  Level FlightAware ADS-B
Wed 09:20:22 AM 58.4800 16.2620 224° Southwest 440 506 40,000  Level FlightAware ADS-B
Wed 09:21:02 AM 58.4230 16.1610 223° Southwest 443 510 40,000  Level FlightAware ADS-B
Wed 09:21:47 AM 58.3520 16.0350 223° Southwest 444 511 40,000  Level FlightAware ADS-B
Wed 09:22:27 AM 58.2930 15.9310 223° Southwest 442 509 40,000  Level FlightAware ADS-B
Wed 09:23:07 AM 58.2340 15.8270 223° Southwest 445 512 40,000  Level FlightAware ADS-B
Wed 09:23:52 AM 58.1660 15.7070 223° Southwest 448 516 40,000  Level FlightAware ADS-B
Wed 09:24:32 AM 58.1040 15.5980 223° Southwest 450 518 40,000  Level FlightAware ADS-B
Wed 09:25:17 AM 58.0350 15.4780 223° Southwest 448 516 40,000  Level FlightAware ADS-B
Wed 09:26:12 AM 57.9480 15.3280 222° Southwest 446 513 40,000  Level FlightAware ADS-B
Wed 09:26:52 AM 57.8890 15.2270 222° Southwest 448 516 40,000  Level FlightAware ADS-B
Wed 09:27:37 AM 57.8220 15.1130 222° Southwest 450 518 40,000  Level FlightAware ADS-B
Wed 09:28:17 AM 57.7590 15.0060 222° Southwest 453 521 40,000  Level FlightAware ADS-B
Wed 09:29:02 AM 57.6880 14.8860 222° Southwest 452 520 40,000  Level FlightAware ADS-B
Wed 09:29:42 AM 57.6270 14.7840 222° Southwest 451 519 40,000  Level FlightAware ADS-B
Wed 09:30:22 AM 57.5660 14.6790 223° Southwest 451 519 40,000  Level FlightAware ADS-B
Wed 09:31:07 AM 57.5020 14.5500 227° Southwest 449 517 40,000  Level FlightAware ADS-B
Wed 09:31:47 AM 57.4460 14.4390 227° Southwest 453 521 40,000  Level FlightAware ADS-B
Wed 09:32:32 AM 57.3800 14.3090 227° Southwest 449 517 40,000  Level FlightAware ADS-B
Wed 09:33:12 AM 57.3230 14.2000 226° Southwest 447 514 40,000  Level FlightAware ADS-B
Wed 09:33:52 AM 57.2670 14.0930 226° Southwest 448 516 40,000  Level FlightAware ADS-B
Wed 09:34:37 AM 57.2030 13.9710 226° Southwest 446 513 40,000  Level FlightAware ADS-B
Wed 09:35:17 AM 57.1430 13.8570 226° Southwest 444 511 40,000  Level FlightAware ADS-B
Wed 09:36:02 AM 57.0820 13.7400 226° Southwest 443 510 40,000  Level FlightAware ADS-B
Wed 09:36:37 AM 57.0310 13.6450 225° Southwest 444 511 40,000  Level FlightAware ADS-B
Wed 09:37:22 AM 56.9680 13.5260 226° Southwest 444 511 40,000  Level FlightAware ADS-B
Wed 09:38:07 AM 56.9020 13.4040 225° Southwest 441 507 40,000  Level FlightAware ADS-B
Wed 09:38:47 AM 56.8460 13.3000 225° Southwest 439 505 40,000  Level FlightAware ADS-B
Wed 09:39:27 AM 56.7890 13.1930 226° Southwest 438 504 40,000  Level FlightAware ADS-B
Wed 09:40:12 AM 56.7250 13.0760 225° Southwest 434 499 40,000  Level FlightAware ADS-B
Wed 09:40:52 AM 56.6690 12.9740 225° Southwest 436 502 40,000  Level FlightAware ADS-B
Wed 09:41:37 AM 56.6030 12.8530 225° Southwest 438 504 40,000  Level FlightAware ADS-B
Wed 09:42:17 AM 56.5460 12.7500 225° Southwest 437 503 40,000  Level FlightAware ADS-B
Wed 09:43:02 AM 56.4830 12.6360 225° Southwest 436 502 40,000  Level FlightAware ADS-B
Wed 09:43:42 AM 56.4280 12.5300 227° Southwest 433 498 40,000  Level FlightAware ADS-B
Wed 09:44:22 AM 56.3790 12.4280 229° Southwest 429 494 40,000  Level FlightAware ADS-B
Wed 09:45:07 AM 56.3230 12.3130 229° Southwest 425 489 40,000  Level FlightAware ADS-B
Wed 09:45:47 AM 56.2660 12.1980 228° Southwest 424 488 40,000  Level FlightAware ADS-B
Wed 09:46:27 AM 56.2130 12.0920 228° Southwest 425 489 40,000  Level FlightAware ADS-B
Wed 09:47:12 AM 56.1550 11.9760 228° Southwest 424 488 40,000  Level FlightAware ADS-B
Wed 09:47:52 AM 56.1020 11.8710 228° Southwest 424 488 40,000  Level FlightAware ADS-B
Wed 09:48:37 AM 56.0420 11.7530 228° Southwest 424 488 40,000  Level FlightAware ADS-B
Wed 09:49:17 AM 55.9890 11.6470 228° Southwest 423 487 40,000  Level FlightAware ADS-B
Wed 09:49:57 AM 55.9370 11.5450 228° Southwest 423 487 40,000  Level FlightAware ADS-B
Wed 09:50:42 AM 55.8790 11.4330 227° Southwest 423 487 40,000  Level FlightAware ADS-B
Wed 09:51:37 AM 55.8080 11.2940 228° Southwest 423 487 40,000  Level FlightAware ADS-B
Wed 09:52:17 AM 55.7530 11.1890 227° Southwest 424 488 40,000  Level FlightAware ADS-B
Wed 09:53:02 AM 55.6940 11.0760 227° Southwest 426 490 40,000  Level FlightAware ADS-B
Wed 09:53:42 AM 55.6390 10.9690 228° Southwest 426 490 40,000  Level FlightAware ADS-B
Wed 09:54:22 AM 55.5860 10.8700 227° Southwest 423 487 40,000  Level FlightAware ADS-B
Wed 09:55:07 AM 55.5250 10.7540 227° Southwest 419 482 40,000  Level FlightAware ADS-B
Wed 09:55:47 AM 55.4740 10.6570 227° Southwest 420 483 40,000  Level FlightAware ADS-B
Wed 09:56:22 AM 55.4300 10.5750 227° Southwest 421 484 40,000  Level FlightAware ADS-B
Wed 09:57:12 AM 55.3620 10.4470 227° Southwest 420 483 40,000  Level FlightAware ADS-B
Wed 09:57:52 AM 55.3080 10.3470 227° Southwest 420 483 40,000  Level FlightAware ADS-B
Wed 09:58:37 AM 55.2500 10.2390 227° Southwest 421 484 40,000  Level FlightAware ADS-B
Wed 09:59:17 AM 55.1970 10.1410 227° Southwest 421 484 40,000  Level FlightAware ADS-B
Wed 10:00:02 AM 55.1340 10.0250 226° Southwest 421 484 40,000  Level FlightAware ADS-B
Wed 10:00:47 AM 55.0730 9.9140 226° Southwest 422 486 40,000  Level FlightAware ADS-B
Wed 10:01:27 AM 55.0210 9.8190 226° Southwest 421 484 40,000  Level FlightAware ADS-B
Wed 10:02:07 AM 54.9670 9.7210 226° Southwest 420 483 40,000  Level FlightAware ADS-B
Wed 10:02:52 AM 54.9050 9.6100 226° Southwest 422 486 40,000  Level FlightAware ADS-B
Wed 10:03:32 AM 54.8510 9.5130 226° Southwest 423 487 40,000  Level FlightAware ADS-B
Wed 10:04:17 AM 54.7900 9.4040 226° Southwest 426 490 40,000  Level FlightAware ADS-B
Wed 10:04:57 AM 54.7350 9.3050 226° Southwest 426 490 40,000  Level FlightAware ADS-B
Wed 10:05:37 AM 54.6810 9.2100 226° Southwest 423 487 40,000  Level FlightAware ADS-B
Wed 10:06:22 AM 54.6190 9.1010 226° Southwest 424 488 40,000  Level FlightAware ADS-B
Wed 10:07:02 AM 54.5680 9.0110 226° Southwest 427 491 40,000  Level FlightAware ADS-B
Wed 10:07:47 AM 54.5020 8.8940 226° Southwest 428 493 40,000  Level FlightAware ADS-B
Wed 10:08:22 AM 54.4580 8.8180 225° Southwest 429 494 40,000  Level FlightAware ADS-B
Wed 10:09:07 AM 54.3990 8.6940 231° Southwest 424 488 40,000  Level FlightAware ADS-B
Wed 10:09:52 AM 54.3500 8.5720 235° Southwest 423 487 40,000  Level FlightAware ADS-B
Wed 10:10:32 AM 54.3060 8.4630 235° Southwest 421 484 40,000  Level FlightAware ADS-B
Wed 10:11:17 AM 54.2550 8.3370 235° Southwest 423 487 40,000  Level FlightAware ADS-B
Wed 10:11:57 AM 54.2110 8.2280 235° Southwest 423 487 40,000  Level FlightAware ADS-B
Wed 10:12:37 AM 54.1650 8.1160 235° Southwest 424 488 40,000  Level FlightAware ADS-B
Wed 10:13:17 AM 54.1210 8.0080 235° Southwest 423 487 40,000  Level FlightAware ADS-B
Wed 10:14:02 AM 54.0710 7.8890 234° Southwest 425 489 40,000  Level FlightAware ADS-B
Wed 10:14:47 AM 54.0170 7.7590 235° Southwest 427 491 40,000  Level FlightAware ADS-B
Wed 10:15:27 AM 53.9740 7.6540 235° Southwest 426 490 40,000  Level FlightAware ADS-B
Wed 10:16:12 AM 53.9220 7.5310 234° Southwest 425 489 40,000  Level FlightAware ADS-B
Wed 10:16:52 AM 53.8760 7.4200 235° Southwest 426 490 40,000  Level FlightAware ADS-B
Wed 10:17:32 AM 53.8300 7.3110 234° Southwest 425 489 40,000  Level FlightAware ADS-B
Wed 10:18:17 AM 53.7810 7.1960 234° Southwest 422 486 40,000  Level FlightAware ADS-B
Wed 10:18:57 AM 53.7350 7.0880 234° Southwest 421 484 40,000  Level FlightAware ADS-B
Wed 10:19:42 AM 53.6830 6.9670 234° Southwest 421 484 40,000 -1,548 Level FlightAware ADS-B
Wed 10:19:59 AM 53.6594 6.9151 234° Southwest 1 1 38,400 -2,743 Descending FlightAware UK
Wed 10:20:17 AM 53.6391 6.8674 234° Southwest 1 1 38,400 4,174 Level FlightAware UK
Wed 10:20:22 AM 53.6370 6.8610 234° Southwest 421 484 40,000  Climbing FlightAware ADS-B
Wed 10:20:41 AM 53.6120 6.8038 234° Southwest 1 1 38,400 -2,595 Descending FlightAware UK
Wed 10:20:59 AM 53.5922 6.7561 235° Southwest 1 1 38,400 3,692 Level FlightAware UK
Wed 10:21:07 AM 53.5850 6.7400 235° Southwest 420 483 40,000  Climbing FlightAware ADS-B
Wed 10:21:23 AM 53.5644 6.6932 235° Southwest 1 1 38,400 -2,824 Descending FlightAware UK
Wed 10:21:41 AM 53.5445 6.6454 235° Southwest 1 1 38,400 4,000 Level FlightAware UK
Wed 10:21:47 AM 53.5430 6.6430 235° Southwest 420 483 40,000  Climbing FlightAware ADS-B
Wed 10:22:05 AM 53.5164 6.5823 235° Southwest 1 1 38,400 -2,667 Descending FlightAware UK
Wed 10:22:23 AM 53.4953 6.5348 233° Southwest 470 541 38,400 4,364 Level FlightAware UK
Wed 10:22:27 AM 53.4940 6.5300 233° Southwest 425 489 40,000  Climbing FlightAware ADS-B
Wed 10:22:47 AM 53.4677 6.4711 233° Southwest 470 541 38,400 -2,526 Descending FlightAware UK
Wed 10:23:05 AM 53.4465 6.4234 233° Southwest 472 543 38,400 3,840 Level FlightAware UK
Wed 10:23:12 AM 53.4450 6.4180 233° Southwest 426 490 40,000  Climbing FlightAware ADS-B
Wed 10:23:29 AM 53.4190 6.3594 233° Southwest 470 541 38,400 -2,743 Descending FlightAware UK
Wed 10:23:47 AM 53.3979 6.3119 233° Southwest 470 541 38,400 4,174 Level FlightAware UK
Wed 10:23:52 AM 53.3960 6.3070 233° Southwest 422 486 40,000  Climbing FlightAware ADS-B
Wed 10:24:11 AM 53.3702 6.2486 233° Southwest 468 539 38,400 -2,595 Descending FlightAware UK
Wed 10:24:29 AM 53.3496 6.2012 234° Southwest 468 539 38,400 3,692 Level FlightAware UK
Wed 10:24:37 AM 53.3420 6.1860 234° Southwest 418 481 40,000  Climbing FlightAware ADS-B
Wed 10:24:53 AM 53.3211 6.1385 234° Southwest 468 539 38,400 -2,824 Descending FlightAware UK
Wed 10:25:11 AM 53.2998 6.0915 233° Southwest 468 539 38,400 4,000 Level FlightAware UK
Wed 10:25:17 AM 53.2990 6.0880 233° Southwest 418 481 40,000  Climbing FlightAware ADS-B
Wed 10:25:41 AM 53.2649 6.0131 233° Southwest 468 539 38,400  Descending FlightAware UK
Wed 10:25:57 AM 53.2530 5.9860 233° Southwest 417 480 40,000 1,574 Climbing FlightAware ADS-B
Wed 10:26:42 AM 53.2000 5.8660 234° Southwest 419 482 40,000 -1,548 Level FlightAware ADS-B
Wed 10:26:59 AM 53.1753 5.8099 234° Southwest 468 539 38,400  Descending FlightAware UK
Wed 10:27:22 AM 53.1530 5.7530 234° Southwest 417 480 40,000  Climbing FlightAware ADS-B
Wed 10:27:41 AM 53.1295 5.6973 234° Southwest 468 539 38,400  Descending FlightAware UK
Wed 10:28:07 AM 53.1060 5.6360 234° Southwest 417 480 40,000 1,455 Climbing FlightAware ADS-B
Wed 10:28:47 AM 53.0630 5.5340 235° Southwest 418 481 40,000 -1,371 Level FlightAware ADS-B
Wed 10:29:17 AM 53.0250 5.4394 235° Southwest 468 539 38,400  Descending FlightAware UK
Wed 10:29:27 AM 53.0190 5.4260 235° Southwest 421 484 40,000  Climbing FlightAware ADS-B
Wed 10:29:53 AM 52.9848 5.3440 235° Southwest 468 539 38,400  Descending FlightAware UK
Wed 10:30:12 AM 52.9710 5.3100 235° Southwest 423 487 40,000  Climbing FlightAware ADS-B
Wed 10:30:29 AM 52.9452 5.2483 235° Southwest 470 541 38,400 -2,743 Descending FlightAware UK
Wed 10:30:47 AM 52.9250 5.2005 235° Southwest 470 541 38,400 4,174 Level FlightAware UK
Wed 10:30:52 AM 52.9230 5.1950 235° Southwest 423 487 40,000 1,920 Climbing FlightAware ADS-B
Wed 10:31:37 AM 52.8720 5.0740 235° Southwest 421 484 40,000 -1,315 Level FlightAware ADS-B
Wed 10:32:05 AM 52.8382 4.9944 235° Southwest 468 539 38,400  Descending FlightAware UK
Wed 10:32:12 AM 52.8340 4.9840 235° Southwest 420 483 40,000  Climbing FlightAware ADS-B
Wed 10:32:47 AM 52.7918 4.8840 235° Southwest 468 539 38,400  Descending FlightAware UK
Wed 10:32:57 AM 52.7850 4.8680 235° Southwest 420 483 40,000  Climbing FlightAware ADS-B
Wed 10:33:29 AM 52.7454 4.7738 235° Southwest 468 539 38,400  Descending FlightAware UK
Wed 10:33:42 AM 52.7370 4.7560 235° Southwest 422 486 40,000  Climbing FlightAware ADS-B
Wed 10:33:59 AM 52.7122 4.6952 235° Southwest 468 539 38,400 -2,743 Descending FlightAware UK
Wed 10:34:17 AM 52.6923 4.6481 235° Southwest 468 539 38,400 4,174 Level FlightAware UK
Wed 10:34:22 AM 52.6890 4.6430 235° Southwest 424 488 40,000 1,920 Climbing FlightAware ADS-B
Wed 10:35:07 AM 52.6380 4.5230 235° Southwest 424 488 40,000  Level FlightAware ADS-B
Wed 10:35:42 AM 52.5990 4.4330 235° Southwest 426 490 40,000 -1,846 Level FlightAware ADS-B
Wed 10:35:59 AM 52.5773 4.3801 235° Southwest 468 539 38,400  Descending FlightAware UK
Wed 10:36:27 AM 52.5490 4.3180 235° Southwest 427 491 40,000 1,315 Climbing FlightAware ADS-B
Wed 10:37:12 AM 52.4950 4.1940 234° Southwest 425 489 40,000 -1,412 Level FlightAware ADS-B
Wed 10:37:35 AM 52.4664 4.1276 234° Southwest 468 539 38,400  Descending FlightAware UK
Wed 10:37:47 AM 52.4560 4.1050 234° Southwest 424 488 40,000 1,684 Climbing FlightAware ADS-B
Wed 10:38:32 AM 52.4070 3.9930 234° Southwest 419 482 40,000 -1,600 Level FlightAware ADS-B
Wed 10:38:47 AM 52.3841 3.9401 234° Southwest 468 539 38,400  Descending FlightAware UK
Wed 10:39:17 AM 52.3550 3.8730 234° Southwest 418 481 40,000 1,371 Climbing FlightAware ADS-B
Wed 10:39:57 AM 52.3090 3.7700 234° Southwest 417 480 40,000  Level FlightAware ADS-B
Wed 10:40:42 AM 52.2570 3.6530 234° Southwest 417 480 40,000 -1,412 Level FlightAware ADS-B
Wed 10:41:05 AM 52.2266 3.5843 234° Southwest 468 539 38,400  Descending FlightAware UK
Wed 10:41:22 AM 52.2120 3.5530 234° Southwest 417 480 40,000  Climbing FlightAware ADS-B
Wed 10:41:53 AM 52.1719 3.4613 234° Southwest 468 539 38,400  Descending FlightAware UK
Wed 10:42:07 AM 52.1610 3.4390 234° Southwest 416 479 40,000  Climbing FlightAware ADS-B
Wed 10:42:29 AM 52.1305 3.3697 234° Southwest 464 534 38,400  Descending FlightAware UK
Wed 10:42:47 AM 52.1150 3.3350 234° Southwest 417 480 40,000  Climbing FlightAware ADS-B
Wed 10:43:05 AM 52.0893 3.2784 234° Southwest 466 536 38,400 -2,667 Descending FlightAware UK
Wed 10:43:23 AM 52.0684 3.2325 234° Southwest 466 536 38,400 4,364 Level FlightAware UK
Wed 10:43:27 AM 52.0700 3.2360 234° Southwest 423 487 40,000  Climbing FlightAware ADS-B
Wed 10:43:59 AM 52.0267 3.1407 234° Southwest 468 539 38,400  Descending FlightAware UK
Wed 10:44:07 AM 52.0210 3.1280 234° Southwest 424 488 40,000 2,000 Climbing FlightAware ADS-B
Wed 10:44:47 AM 51.9770 3.0310 234° Southwest 421 484 40,000 -494 Level FlightAware ADS-B
Wed 10:45:32 AM 51.9260 2.9140 235° Southwest 417 480 39,300 -1,200 Descending FlightAware ADS-B
Wed 10:46:17 AM 51.9060 2.7870 256° West 413 475 38,200 -3,333 Descending FlightAware ADS-B
Wed 10:46:35 AM 51.8960 2.7121 256° West 468 539 35,800 -2,400 Descending FlightAware UK
Wed 10:46:57 AM 51.8890 2.6570 256° West 408 470 36,600 -2,286 Climbing FlightAware ADS-B
Wed 10:47:17 AM 51.8795 2.5866 256° West 462 532 34,200 -1,950 Descending FlightAware UK
Wed 10:47:37 AM 51.8730 2.5390 256° West 402 463 35,300 -1,902 Climbing FlightAware ADS-B
Wed 10:47:58 AM 51.8632 2.4642 256° West 452 520 32,900 -2,000 Descending FlightAware UK
Wed 10:48:22 AM 51.8560 2.4090 256° West 396 456 33,800 -1,857 Climbing FlightAware ADS-B
Wed 10:48:40 AM 51.8473 2.3432 256° West 448 516 31,600 -2,053 Descending FlightAware UK
Wed 10:49:00 AM 51.8402 2.2894 256° West 394 453 32,500 -1,857 Climbing FlightAware ADS-B
Wed 10:49:22 AM 51.8314 2.2233 256° West 438 504 30,300 -1,742 Descending FlightAware UK
Wed 10:49:31 AM 51.8288 2.2045 256° West 389 448 31,600 -2,000 Climbing FlightAware ADS-B
Wed 10:49:46 AM 51.8222 2.1555 256° West 434 499 29,500 -1,833 Descending FlightAware UK
Wed 10:50:07 AM 51.8146 2.0989 256° West 383 441 30,500 -1,750 Climbing FlightAware ADS-B
Wed 10:50:34 AM 51.8044 2.0234 256° West 424 488 28,100 -1,833 Descending FlightAware UK
Wed 10:50:43 AM 51.8017 2.0029 256° West 379 436 29,400 -2,000 Climbing FlightAware ADS-B
Wed 10:50:58 AM 51.7955 1.9574 256° West 422 486 27,300 -1,833 Descending FlightAware UK
Wed 10:51:19 AM 51.7878 1.9014 256° West 379 436 28,300 -1,833 Climbing FlightAware ADS-B
Wed 10:51:34 AM 51.7818 1.8584 256° West 418 481 26,200 -2,000 Descending FlightAware UK
Wed 10:51:52 AM 51.7753 1.8107 256° West 377 434 27,200 -1,833 Climbing FlightAware ADS-B
Wed 10:52:10 AM 51.7681 1.7596 256° West 416 479 25,100 -1,800 Descending FlightAware UK
Wed 10:52:22 AM 51.7639 1.7280 256° West 375 432 26,300 -1,800 Climbing FlightAware ADS-B
Wed 10:52:40 AM 51.7569 1.6778 256° West 412 474 24,200 -1,742 Descending FlightAware UK
Wed 10:52:53 AM 51.7523 1.6444 256° West 373 429 25,400 909 Climbing FlightAware ADS-B
Wed 10:53:13 AM 51.7467 1.5915 260° West 372 428 24,700 -3,000 Descending FlightAware ADS-B
Wed 10:53:43 AM 51.7407 1.5093 263° West 359 413 22,900 -5,600 Descending FlightAware ADS-B
Wed 10:53:58 AM 51.7376 1.4687 263° West 388 447 20,500 -3,290 Descending FlightAware UK
Wed 10:54:14 AM 51.7342 1.4289 263° West 344 396 21,200 -2,833 Climbing FlightAware ADS-B
Wed 10:54:34 AM 51.7301 1.3783 263° West 364 419 18,800 -2,063 Descending FlightAware UK
Wed 10:54:46 AM 51.7281 1.3504 263° West 316 364 20,100 -2,000 Climbing FlightAware ADS-B
Wed 10:55:04 AM 51.7248 1.3083 263° West 336 387 17,800 -2,516 Descending FlightAware UK
Wed 10:55:17 AM 51.7227 1.2790 263° West 305 351 18,800 -2,000 Climbing FlightAware ADS-B
Wed 10:55:34 AM 51.7199 1.2414 263° West 332 382 16,800 -1,588 Descending FlightAware UK
Wed 10:55:51 AM 51.7175 1.2054 263° West 299 344 17,900 2,077 Climbing FlightAware ADS-B
Wed 10:56:00 AM 51.7167 1.1855 266° West 298 343 17,700 -1,538 Descending FlightAware ADS-B
Wed 10:56:30 AM 51.7160 1.1190 269° West 296 341 16,900 -3,783 Descending FlightAware ADS-B
Wed 10:56:46 AM 51.7157 1.0827 269° West 322 371 14,800 -2,000 Descending FlightAware UK
Wed 10:57:00 AM 51.7153 1.0523 269° West 291 335 15,900 -1,600 Climbing FlightAware ADS-B
Wed 10:57:16 AM 51.7150 1.0174 269° West 316 364 14,000 -1,350 Descending FlightAware UK
Wed 10:57:40 AM 51.7140 0.9667 269° West 288 331 15,000 -857 Climbing FlightAware ADS-B
Wed 10:57:58 AM 51.7134 0.9292 269° West 298 343 13,400  Descending FlightAware UK
Wed 10:58:11 AM 51.7131 0.9048 269° West 260 299 15,000 200 Climbing FlightAware ADS-B
Wed 10:58:28 AM 51.7125 0.8720 269° West 276 318 13,500  Descending FlightAware UK
Wed 10:58:42 AM 51.7121 0.8466 269° West 253 291 15,000  Climbing FlightAware ADS-B
Wed 10:58:58 AM 51.7117 0.8155 269° West 278 320 13,500  Descending FlightAware UK
Wed 10:59:12 AM 51.7114 0.7896 269° West 252 290 15,000 2,045 Climbing FlightAware ADS-B
Wed 10:59:42 AM 51.7107 0.7331 269° West 253 291 15,000 -2,000 Level FlightAware ADS-B
Wed 10:59:57 AM 51.7103 0.7036 269° West 276 318 13,500  Descending FlightAware UK
Wed 11:00:17 AM 51.7098 0.6685 269° West 253 291 15,000  Climbing FlightAware ADS-B
Wed 11:00:39 AM 51.7090 0.6247 269° West 276 318 13,500  Descending FlightAware UK
Wed 11:01:01 AM 51.7035 0.5866 269° West 250 288 15,000 1,731 Climbing FlightAware ADS-B
Wed 11:01:31 AM 51.6965 0.5304 259° West 251 289 15,000 -1,800 Level FlightAware ADS-B
Wed 11:01:51 AM 51.6920 0.4933 259° West 276 318 13,500  Descending FlightAware UK
Wed 11:02:12 AM 51.6873 0.4568 259° West 251 289 15,000  Climbing FlightAware ADS-B
Wed 11:02:33 AM 51.6821 0.4168 259° West 276 318 13,500  Descending FlightAware UK
Wed 11:02:50 AM 51.6782 0.3877 259° West 250 288 15,000 1,532 Climbing FlightAware ADS-B
Wed 11:03:20 AM 51.6707 0.3324 258° West 249 287 14,700 -2,449 Descending FlightAware ADS-B
Wed 11:03:39 AM 51.6659 0.2974 258° West 276 318 13,000 -375 Descending FlightAware UK
Wed 11:03:52 AM 51.6630 0.2758 258° West 248 285 14,500 1,636 Climbing FlightAware ADS-B
Wed 11:04:23 AM 51.6554 0.2198 258° West 245 282 14,200 -2,264 Descending FlightAware ADS-B
Wed 11:04:45 AM 51.6500 0.1798 258° West 272 313 12,500 -400 Descending FlightAware UK
Wed 11:04:53 AM 51.6481 0.1664 258° West 245 282 14,000 3,120 Climbing FlightAware ADS-B
Wed 11:05:10 AM 51.6439 0.1358 258° West 244 281 13,800 -522 Descending FlightAware ADS-B
Wed 11:05:16 AM 51.6425 0.1272 255° West 244 281 13,800 -462 Level FlightAware ADS-B
Wed 11:05:23 AM 51.6392 0.1140 248° West 243 280 13,700 -375 Descending FlightAware ADS-B
Wed 11:05:32 AM 51.6345 0.1017 238° Southwest 245 282 13,700 -333 Level FlightAware ADS-B
Wed 11:05:41 AM 51.6271 0.0890 227° Southwest 248 285 13,600 -750 Descending FlightAware ADS-B
Wed 11:05:48 AM 51.6204 0.0816 214° Southwest 251 289 13,500 -545 Descending FlightAware ADS-B
Wed 11:05:52 AM 51.6159 0.0781 206° Southwest 253 291 13,500 -400 Level FlightAware ADS-B
Wed 11:06:03 AM 51.6037 0.0732 194° South 260 299 13,400 -632 Descending FlightAware ADS-B
Wed 11:06:11 AM 51.5940 0.0733 179° South 264 304 13,300 -632 Descending FlightAware ADS-B
Wed 11:06:22 AM 51.5799 0.0796 165° South 274 315 13,200 -375 Descending FlightAware ADS-B
Wed 11:06:27 AM 51.5740 0.0850 150° Southeast 277 319 13,200 -375 Level FlightAware ADS-B
Wed 11:06:38 AM 51.5641 0.0991 138° Southeast 284 327 13,100 -600 Descending FlightAware ADS-B
Wed 11:06:47 AM 51.5569 0.1160 124° Southeast 288 331 13,000 -1,333 Descending FlightAware ADS-B
Wed 11:06:56 AM 51.5530 0.1342 109° East 290 334 12,700 -1,846 Descending FlightAware ADS-B
Wed 11:07:00 AM 51.5523 0.1417 99° East 294 338 12,600 -2,769 Descending FlightAware ADS-B
Wed 11:07:09 AM 51.5531 0.1629 87° East 302 348 12,100 -2,769 Descending FlightAware ADS-B
Wed 11:07:13 AM 51.5545 0.1711 75° East 305 351 12,000 -2,769 Descending FlightAware ADS-B
Wed 11:07:22 AM 51.5598 0.1881 63° Northeast 309 356 11,500 -2,800 Descending FlightAware ADS-B
Wed 11:07:28 AM 51.5658 0.1992 49° Northeast 309 356 11,300 -2,143 Descending FlightAware ADS-B
Wed 11:07:36 AM 51.5752 0.2097 35° Northeast 305 351 11,000 -2,143 Descending FlightAware ADS-B
Wed 11:07:42 AM 51.5821 0.2144 23° Northeast 302 348 10,800 -1,636 Descending FlightAware ADS-B
Wed 11:07:47 AM 51.5890 0.2171 14° North 298 343 10,700 -1,500 Descending FlightAware ADS-B
Wed 11:07:54 AM 51.5996 0.2178 North 291 335 10,500 -1,200 Descending FlightAware ADS-B
Wed 11:08:02 AM 51.6098 0.2150 350° North 282 325 10,400 -1,000 Descending FlightAware ADS-B
Wed 11:08:06 AM 51.6147 0.2120 339° North 278 320 10,300 -1,600 Descending FlightAware ADS-B
Wed 11:08:17 AM 51.6257 0.2013 329° Northwest 271 312 10,000 -1,765 Descending FlightAware ADS-B
Wed 11:08:23 AM 51.6315 0.1919 315° West 268 308 9,800 -1,200 Descending FlightAware ADS-B
Wed 11:08:27 AM 51.6344 0.1855 306° West 266 306 9,800 -667 Level FlightAware ADS-B
Wed 11:08:32 AM 51.6374 0.1771 300° West 263 303 9,700 -750 Descending FlightAware ADS-B
Wed 11:08:51 AM 51.6471 0.1450 296° West 252 290 9,500 -667 Descending FlightAware ADS-B
Wed 11:08:59 AM 51.6513 0.1312 296° West 246 283 9,400 -462 Descending FlightAware ADS-B
Wed 11:09:04 AM 51.6531 0.1232 290° West 244 281 9,400 -1,091 Level FlightAware ADS-B
Wed 11:09:10 AM 51.6547 0.1119 283° West 244 281 9,200 -2,182 Descending FlightAware ADS-B
Wed 11:09:15 AM 51.6553 0.1031 276° West 246 283 9,000 -1,200 Descending FlightAware ADS-B
Wed 11:09:30 AM 51.6562 0.0759 273° West 242 278 8,800 -720 Descending FlightAware ADS-B
Wed 11:09:40 AM 51.6567 0.0583 273° West 236 272 8,700 -800 Descending FlightAware ADS-B
Wed 11:09:45 AM 51.6565 0.0490 268° West 233 268 8,600 -545 Descending FlightAware ADS-B
Wed 11:09:51 AM 51.6553 0.0405 257° West 232 267 8,600 -429 Level FlightAware ADS-B
Wed 11:09:59 AM 51.6514 0.0282 243° Southwest 228 262 8,500 -706 Descending FlightAware ADS-B
Wed 11:10:08 AM 51.6449 0.0178 225° Southwest 227 261 8,400 -1,385 Descending FlightAware ADS-B
Wed 11:10:12 AM 51.6409 0.0134 215° Southwest 229 264 8,200 -2,400 Descending FlightAware ADS-B
Wed 11:10:18 AM 51.6355 0.0087 208° Southwest 231 266 8,000 -2,143 Descending FlightAware ADS-B
Wed 11:10:26 AM 51.6275 0.0029 204° Southwest 232 267 7,700 -2,100 Descending FlightAware ADS-B
Wed 11:10:38 AM 51.6156 -0.0048 202° Southwest 232 267 7,300 -2,211 Descending FlightAware ADS-B
Wed 11:10:45 AM 51.6087 -0.0073 193° South 236 272 7,000 -2,400 Descending FlightAware ADS-B
Wed 11:10:53 AM 51.5993 -0.0066 177° South 243 280 6,700 -2,308 Descending FlightAware ADS-B
Wed 11:10:58 AM 51.5941 -0.0044 165° South 246 283 6,500 -2,308 Descending FlightAware ADS-B
Wed 11:11:06 AM 51.5855 0.0010 159° South 248 285 6,200 -2,087 Descending FlightAware ADS-B
Wed 11:11:21 AM 51.5691 0.0135 155° Southeast 253 291 5,700 -1,714 Descending FlightAware ADS-B
Wed 11:11:27 AM 51.5636 0.0176 155° Southeast 253 291 5,600 -1,091 Descending FlightAware ADS-B
Wed 11:11:32 AM 51.5581 0.0209 159° South 252 290 5,500 -1,500 Descending FlightAware ADS-B
Wed 11:11:39 AM 51.5500 0.0243 165° South 249 287 5,300 -1,200 Descending FlightAware ADS-B
Wed 11:11:52 AM 51.5362 0.0281 170° South 240 276 5,100 -600 Descending FlightAware ADS-B
Wed 11:12:09 AM 51.5175 0.0329 171° South 224 258 5,000 -429 Descending FlightAware ADS-B
Wed 11:12:20 AM 51.5069 0.0356 171° South 213 245 4,900 -286 Descending FlightAware ADS-B
Wed 11:12:30 AM 51.4980 0.0351 182° South 200 230 4,900 -429 Level FlightAware ADS-B
Wed 11:12:34 AM 51.4941 0.0332 197° South 195 224 4,800 -600 Descending FlightAware ADS-B
Wed 11:12:40 AM 51.4899 0.0293 210° Southwest 191 220 4,800  Level FlightAware ADS-B
Wed 11:12:43 AM 51.4877 0.0265 219° Southwest 186 214 4,800  Level FlightAware ADS-B
Wed 11:12:46 AM 51.4856 0.0233 224° Southwest 184 212 4,800  Level FlightAware ADS-B
Wed 11:12:53 AM 51.4817 0.0162 229° Southwest 181 208 4,800 -222 Level FlightAware ADS-B
Wed 11:13:13 AM 51.4713 -0.0043 231° Southwest 180 207 4,700 -522 Descending FlightAware ADS-B
Wed 11:13:16 AM 51.4699 -0.0076 236° Southwest 178 205 4,600 -667 Descending FlightAware ADS-B
Wed 11:13:22 AM 51.4682 -0.0143 248° West 175 201 4,600  Level FlightAware ADS-B
Wed 11:13:25 AM 51.4674 -0.0188 254° West 174 200 4,600  Level FlightAware ADS-B
Wed 11:13:31 AM 51.4666 -0.0258 260° West 173 199 4,600  Level FlightAware ADS-B
Wed 11:13:38 AM 51.4658 -0.0352 262° West 172 198 4,600 -375 Level FlightAware ADS-B
Wed 11:13:47 AM 51.4655 -0.0465 268° West 171 197 4,500 -706 Descending FlightAware ADS-B
Wed 11:13:55 AM 51.4654 -0.0570 269° West 170 196 4,400 -750 Descending FlightAware ADS-B
Wed 11:14:11 AM 51.4655 -0.0766 270° West 170 196 4,200 -968 Descending FlightAware ADS-B
Wed 11:14:26 AM 51.4654 -0.0962 270° West 174 200 3,900 -1,000 Descending FlightAware ADS-B
Wed 11:14:41 AM 51.4654 -0.1156 270° West 172 198 3,700 -938 Descending FlightAware ADS-B
Wed 11:14:58 AM 51.4655 -0.1373 270° West 172 198 3,400 -938 Descending FlightAware ADS-B
Wed 11:15:13 AM 51.4654 -0.1561 270° West 169 194 3,200 -938 Descending FlightAware ADS-B
Wed 11:15:30 AM 51.4654 -0.1761 270° West 157 181 2,900 -750 Descending FlightAware ADS-B
Wed 11:15:45 AM 51.4654 -0.1933 270° West 149 171 2,800 -600 Descending FlightAware ADS-B
Wed 11:16:00 AM 51.4654 -0.2094 270° West 145 167 2,600 -909 Descending FlightAware ADS-B
Wed 11:16:18 AM 51.4654 -0.2278 270° West 147 169 2,300 -811 Descending FlightAware ADS-B
Wed 11:16:37 AM 51.4653 -0.2499 270° West 151 174 2,100 -3,231 Descending FlightAware ADS-B
Wed 11:16:57 AM 51.4653 -0.2725 270° West 164 189 200 -900 Descending FlightAware UK
Wed 11:17:17 AM 51.4650 -0.2920 270° West 153 176 1,500 1,650 Climbing FlightAware ADS-B
Wed 11:17:37 AM 51.4650 -0.3150 270° West 151 174 1,300 -720 Descending FlightAware ADS-B
Wed 11:18:07 AM 51.4650 -0.3430 270° West 141 162 900 -800 Descending FlightAware ADS-B
Wed 11:18:37 AM 51.4650 -0.3750 270° West 135 155 500 -424 Descending FlightAware ADS-B
Wed 11:19:32 AM 51.4650 -0.4200 270° West 135 155 300 -218 Descending FlightAware ADS-B
Wed 11:19:57 AM 51.4650 -0.4430 270° West 135 155 -720 Descending FlightAware ADS-B
Wed 11:22:00 AM 51.4775 -0.4614 318° Northwest  Level Estimated
Wed 11:23:00 AM 51.4775 -0.4614 90° East  Level Estimated

Login

Don't have an account? Register now (free) for customized features, flight alerts, and more!